<?xml version="1.0" encoding="UTF-8" standalone="no" ?>
<gpx xmlns="http://www.topografix.com/GPX/1/1" xmlns:xsi="http://www.w3.org/2001/XMLSchema-instance" xsi:schemaLocation="http://www.topografix.com/GPX/1/1 http://www.topografix.com/GPX/1/1/gpx.xsd" version="1.1" creator="VisuGPX - https://www.visugpx.com">
  <metadata>
    <name>9209326-La Vancelle Frankenbourg Roche Fées</name>
  </metadata>
  <trk>
    <name><![CDATA[9209326-La Vancelle Frankenbourg Roche Fées]]></name>
    <trkseg>
      <trkpt lat="48.28341" lon="7.31755">
        <ele>382</ele>
        <time>2020-10-20T21:39:15Z</time>
      </trkpt>
      <trkpt lat="48.28342" lon="7.31753">
        <ele>383</ele>
        <time>2020-10-20T21:39:17Z</time>
      </trkpt>
      <trkpt lat="48.28354" lon="7.31776">
        <ele>382</ele>
        <time>2020-10-20T21:39:43Z</time>
      </trkpt>
      <trkpt lat="48.28344" lon="7.31775">
        <ele>382</ele>
        <time>2020-10-20T21:39:57Z</time>
      </trkpt>
      <trkpt lat="48.28334" lon="7.31759">
        <ele>382</ele>
        <time>2020-10-20T21:40:16Z</time>
      </trkpt>
      <trkpt lat="48.2833" lon="7.31756">
        <ele>381</ele>
        <time>2020-10-20T21:40:22Z</time>
      </trkpt>
      <trkpt lat="48.28325" lon="7.31756">
        <ele>381</ele>
        <time>2020-10-20T21:40:29Z</time>
      </trkpt>
      <trkpt lat="48.28354" lon="7.31771">
        <ele>383</ele>
        <time>2020-10-20T21:41:10Z</time>
      </trkpt>
      <trkpt lat="48.28356" lon="7.31778">
        <ele>382</ele>
        <time>2020-10-20T21:41:16Z</time>
      </trkpt>
      <trkpt lat="48.28346" lon="7.31775">
        <ele>382</ele>
        <time>2020-10-20T21:41:30Z</time>
      </trkpt>
      <trkpt lat="48.28362" lon="7.31782">
        <ele>383</ele>
        <time>2020-10-20T21:41:52Z</time>
      </trkpt>
      <trkpt lat="48.28366" lon="7.31793">
        <ele>382</ele>
        <time>2020-10-20T21:42:03Z</time>
      </trkpt>
      <trkpt lat="48.28361" lon="7.31805">
        <ele>381</ele>
        <time>2020-10-20T21:42:16Z</time>
      </trkpt>
      <trkpt lat="48.28381" lon="7.31872">
        <ele>379</ele>
        <time>2020-10-20T21:43:21Z</time>
      </trkpt>
      <trkpt lat="48.28388" lon="7.31881">
        <ele>378</ele>
        <time>2020-10-20T21:43:33Z</time>
      </trkpt>
      <trkpt lat="48.28401" lon="7.31909">
        <ele>377</ele>
        <time>2020-10-20T21:44:04Z</time>
      </trkpt>
      <trkpt lat="48.28414" lon="7.31921">
        <ele>376</ele>
        <time>2020-10-20T21:44:24Z</time>
      </trkpt>
      <trkpt lat="48.28417" lon="7.31934">
        <ele>375</ele>
        <time>2020-10-20T21:44:36Z</time>
      </trkpt>
      <trkpt lat="48.28426" lon="7.31938">
        <ele>377</ele>
        <time>2020-10-20T21:44:49Z</time>
      </trkpt>
      <trkpt lat="48.28436" lon="7.31947">
        <ele>378</ele>
        <time>2020-10-20T21:45:04Z</time>
      </trkpt>
      <trkpt lat="48.28454" lon="7.31983">
        <ele>381</ele>
        <time>2020-10-20T21:45:44Z</time>
      </trkpt>
      <trkpt lat="48.28458" lon="7.3201">
        <ele>381</ele>
        <time>2020-10-20T21:46:09Z</time>
      </trkpt>
      <trkpt lat="48.2847" lon="7.32049">
        <ele>383</ele>
        <time>2020-10-20T21:46:47Z</time>
      </trkpt>
      <trkpt lat="48.2847" lon="7.32078">
        <ele>383</ele>
        <time>2020-10-20T21:47:13Z</time>
      </trkpt>
      <trkpt lat="48.28475" lon="7.32091">
        <ele>383</ele>
        <time>2020-10-20T21:47:26Z</time>
      </trkpt>
      <trkpt lat="48.28477" lon="7.32105">
        <ele>383</ele>
        <time>2020-10-20T21:47:39Z</time>
      </trkpt>
      <trkpt lat="48.28485" lon="7.32115">
        <ele>385</ele>
        <time>2020-10-20T21:47:53Z</time>
      </trkpt>
      <trkpt lat="48.28503" lon="7.32121">
        <ele>388</ele>
        <time>2020-10-20T21:48:17Z</time>
      </trkpt>
      <trkpt lat="48.2852" lon="7.32133">
        <ele>389</ele>
        <time>2020-10-20T21:48:42Z</time>
      </trkpt>
      <trkpt lat="48.28565" lon="7.32148">
        <ele>392</ele>
        <time>2020-10-20T21:49:44Z</time>
      </trkpt>
      <trkpt lat="48.28573" lon="7.32157">
        <ele>392</ele>
        <time>2020-10-20T21:49:57Z</time>
      </trkpt>
      <trkpt lat="48.28587" lon="7.32156">
        <ele>393</ele>
        <time>2020-10-20T21:50:16Z</time>
      </trkpt>
      <trkpt lat="48.28601" lon="7.32148">
        <ele>395</ele>
        <time>2020-10-20T21:50:36Z</time>
      </trkpt>
      <trkpt lat="48.28592" lon="7.32144">
        <ele>395</ele>
        <time>2020-10-20T21:50:49Z</time>
      </trkpt>
      <trkpt lat="48.28617" lon="7.32134">
        <ele>398</ele>
        <time>2020-10-20T21:51:23Z</time>
      </trkpt>
      <trkpt lat="48.28626" lon="7.32138">
        <ele>398</ele>
        <time>2020-10-20T21:51:36Z</time>
      </trkpt>
      <trkpt lat="48.28649" lon="7.32136">
        <ele>400</ele>
        <time>2020-10-20T21:52:06Z</time>
      </trkpt>
      <trkpt lat="48.28668" lon="7.32139">
        <ele>400</ele>
        <time>2020-10-20T21:52:32Z</time>
      </trkpt>
      <trkpt lat="48.28688" lon="7.32137">
        <ele>402</ele>
        <time>2020-10-20T21:52:59Z</time>
      </trkpt>
      <trkpt lat="48.28697" lon="7.32132">
        <ele>403</ele>
        <time>2020-10-20T21:53:11Z</time>
      </trkpt>
      <trkpt lat="48.28726" lon="7.32124">
        <ele>407</ele>
        <time>2020-10-20T21:53:51Z</time>
      </trkpt>
      <trkpt lat="48.28736" lon="7.32126">
        <ele>407</ele>
        <time>2020-10-20T21:54:04Z</time>
      </trkpt>
      <trkpt lat="48.28744" lon="7.32132">
        <ele>406</ele>
        <time>2020-10-20T21:54:16Z</time>
      </trkpt>
      <trkpt lat="48.28754" lon="7.32164">
        <ele>399</ele>
        <time>2020-10-20T21:54:47Z</time>
      </trkpt>
      <trkpt lat="48.28757" lon="7.32188">
        <ele>398</ele>
        <time>2020-10-20T21:55:09Z</time>
      </trkpt>
      <trkpt lat="48.28763" lon="7.32199">
        <ele>398</ele>
        <time>2020-10-20T21:55:22Z</time>
      </trkpt>
      <trkpt lat="48.28772" lon="7.32204">
        <ele>400</ele>
        <time>2020-10-20T21:55:35Z</time>
      </trkpt>
      <trkpt lat="48.28783" lon="7.32227">
        <ele>400</ele>
        <time>2020-10-20T21:56:00Z</time>
      </trkpt>
      <trkpt lat="48.2879" lon="7.32236">
        <ele>401</ele>
        <time>2020-10-20T21:56:12Z</time>
      </trkpt>
      <trkpt lat="48.28793" lon="7.32249">
        <ele>400</ele>
        <time>2020-10-20T21:56:24Z</time>
      </trkpt>
      <trkpt lat="48.28804" lon="7.32273">
        <ele>401</ele>
        <time>2020-10-20T21:56:50Z</time>
      </trkpt>
      <trkpt lat="48.28817" lon="7.32291">
        <ele>402</ele>
        <time>2020-10-20T21:57:14Z</time>
      </trkpt>
      <trkpt lat="48.28834" lon="7.32306">
        <ele>404</ele>
        <time>2020-10-20T21:57:40Z</time>
      </trkpt>
      <trkpt lat="48.28844" lon="7.32311">
        <ele>405</ele>
        <time>2020-10-20T21:57:54Z</time>
      </trkpt>
      <trkpt lat="48.28857" lon="7.32348">
        <ele>405</ele>
        <time>2020-10-20T21:58:31Z</time>
      </trkpt>
      <trkpt lat="48.28864" lon="7.32359">
        <ele>406</ele>
        <time>2020-10-20T21:58:45Z</time>
      </trkpt>
      <trkpt lat="48.28867" lon="7.32373">
        <ele>406</ele>
        <time>2020-10-20T21:58:58Z</time>
      </trkpt>
      <trkpt lat="48.28876" lon="7.32381">
        <ele>407</ele>
        <time>2020-10-20T21:59:12Z</time>
      </trkpt>
      <trkpt lat="48.28884" lon="7.32407">
        <ele>408</ele>
        <time>2020-10-20T21:59:37Z</time>
      </trkpt>
      <trkpt lat="48.28886" lon="7.32435">
        <ele>407</ele>
        <time>2020-10-20T22:00:02Z</time>
      </trkpt>
      <trkpt lat="48.28903" lon="7.325">
        <ele>408</ele>
        <time>2020-10-20T22:01:04Z</time>
      </trkpt>
      <trkpt lat="48.28909" lon="7.32515">
        <ele>409</ele>
        <time>2020-10-20T22:01:20Z</time>
      </trkpt>
      <trkpt lat="48.28913" lon="7.32545">
        <ele>409</ele>
        <time>2020-10-20T22:01:47Z</time>
      </trkpt>
      <trkpt lat="48.28919" lon="7.32555">
        <ele>410</ele>
        <time>2020-10-20T22:01:59Z</time>
      </trkpt>
      <trkpt lat="48.28911" lon="7.32561">
        <ele>408</ele>
        <time>2020-10-20T22:02:11Z</time>
      </trkpt>
      <trkpt lat="48.2893" lon="7.32719">
        <ele>402</ele>
        <time>2020-10-20T22:04:33Z</time>
      </trkpt>
      <trkpt lat="48.28939" lon="7.32776">
        <ele>400</ele>
        <time>2020-10-20T22:05:25Z</time>
      </trkpt>
      <trkpt lat="48.28948" lon="7.32801">
        <ele>401</ele>
        <time>2020-10-20T22:05:51Z</time>
      </trkpt>
      <trkpt lat="48.28985" lon="7.32874">
        <ele>402</ele>
        <time>2020-10-20T22:07:12Z</time>
      </trkpt>
      <trkpt lat="48.29007" lon="7.32904">
        <ele>402</ele>
        <time>2020-10-20T22:07:52Z</time>
      </trkpt>
      <trkpt lat="48.29026" lon="7.3292">
        <ele>405</ele>
        <time>2020-10-20T22:08:21Z</time>
      </trkpt>
      <trkpt lat="48.29044" lon="7.32955">
        <ele>406</ele>
        <time>2020-10-20T22:09:00Z</time>
      </trkpt>
      <trkpt lat="48.29053" lon="7.33">
        <ele>404</ele>
        <time>2020-10-20T22:09:42Z</time>
      </trkpt>
      <trkpt lat="48.29054" lon="7.33057">
        <ele>398</ele>
        <time>2020-10-20T22:10:32Z</time>
      </trkpt>
      <trkpt lat="48.2906" lon="7.33083">
        <ele>398</ele>
        <time>2020-10-20T22:10:57Z</time>
      </trkpt>
      <trkpt lat="48.29107" lon="7.33173">
        <ele>400</ele>
        <time>2020-10-20T22:12:38Z</time>
      </trkpt>
      <trkpt lat="48.29116" lon="7.33182">
        <ele>401</ele>
        <time>2020-10-20T22:12:53Z</time>
      </trkpt>
      <trkpt lat="48.29133" lon="7.33195">
        <ele>404</ele>
        <time>2020-10-20T22:13:18Z</time>
      </trkpt>
      <trkpt lat="48.29144" lon="7.33198">
        <ele>407</ele>
        <time>2020-10-20T22:13:33Z</time>
      </trkpt>
      <trkpt lat="48.29165" lon="7.33199">
        <ele>413</ele>
        <time>2020-10-20T22:14:01Z</time>
      </trkpt>
      <trkpt lat="48.29174" lon="7.33204">
        <ele>414</ele>
        <time>2020-10-20T22:14:14Z</time>
      </trkpt>
      <trkpt lat="48.29184" lon="7.33205">
        <ele>416</ele>
        <time>2020-10-20T22:14:27Z</time>
      </trkpt>
      <trkpt lat="48.29211" lon="7.33218">
        <ele>417</ele>
        <time>2020-10-20T22:15:05Z</time>
      </trkpt>
      <trkpt lat="48.29212" lon="7.33212">
        <ele>419</ele>
        <time>2020-10-20T22:15:11Z</time>
      </trkpt>
      <trkpt lat="48.29212" lon="7.33245">
        <ele>410</ele>
        <time>2020-10-20T22:15:40Z</time>
      </trkpt>
      <trkpt lat="48.2921" lon="7.33249">
        <ele>409</ele>
        <time>2020-10-20T22:15:45Z</time>
      </trkpt>
      <trkpt lat="48.29201" lon="7.3325">
        <ele>406</ele>
        <time>2020-10-20T22:15:57Z</time>
      </trkpt>
      <trkpt lat="48.29204" lon="7.33251">
        <ele>407</ele>
        <time>2020-10-20T22:16:01Z</time>
      </trkpt>
      <trkpt lat="48.29218" lon="7.33246">
        <ele>411</ele>
        <time>2020-10-20T22:16:20Z</time>
      </trkpt>
      <trkpt lat="48.29208" lon="7.33264">
        <ele>404</ele>
        <time>2020-10-20T22:16:41Z</time>
      </trkpt>
      <trkpt lat="48.29235" lon="7.33284">
        <ele>405</ele>
        <time>2020-10-20T22:17:21Z</time>
      </trkpt>
      <trkpt lat="48.29242" lon="7.33293">
        <ele>404</ele>
        <time>2020-10-20T22:17:33Z</time>
      </trkpt>
      <trkpt lat="48.2927" lon="7.33343">
        <ele>401</ele>
        <time>2020-10-20T22:18:31Z</time>
      </trkpt>
      <trkpt lat="48.29271" lon="7.33357">
        <ele>399</ele>
        <time>2020-10-20T22:18:44Z</time>
      </trkpt>
      <trkpt lat="48.29277" lon="7.33367">
        <ele>399</ele>
        <time>2020-10-20T22:18:56Z</time>
      </trkpt>
      <trkpt lat="48.29286" lon="7.33372">
        <ele>402</ele>
        <time>2020-10-20T22:19:08Z</time>
      </trkpt>
      <trkpt lat="48.29301" lon="7.33391">
        <ele>404</ele>
        <time>2020-10-20T22:19:35Z</time>
      </trkpt>
      <trkpt lat="48.29311" lon="7.33415">
        <ele>404</ele>
        <time>2020-10-20T22:20:00Z</time>
      </trkpt>
      <trkpt lat="48.29317" lon="7.33442">
        <ele>402</ele>
        <time>2020-10-20T22:20:25Z</time>
      </trkpt>
      <trkpt lat="48.29329" lon="7.33463">
        <ele>402</ele>
        <time>2020-10-20T22:20:50Z</time>
      </trkpt>
      <trkpt lat="48.29337" lon="7.3347">
        <ele>403</ele>
        <time>2020-10-20T22:21:02Z</time>
      </trkpt>
      <trkpt lat="48.29391" lon="7.33494">
        <ele>408</ele>
        <time>2020-10-20T22:22:17Z</time>
      </trkpt>
      <trkpt lat="48.29426" lon="7.33514">
        <ele>409</ele>
        <time>2020-10-20T22:23:07Z</time>
      </trkpt>
      <trkpt lat="48.29437" lon="7.3354">
        <ele>406</ele>
        <time>2020-10-20T22:23:34Z</time>
      </trkpt>
      <trkpt lat="48.29448" lon="7.33547">
        <ele>407</ele>
        <time>2020-10-20T22:23:50Z</time>
      </trkpt>
      <trkpt lat="48.29458" lon="7.33548">
        <ele>409</ele>
        <time>2020-10-20T22:24:04Z</time>
      </trkpt>
      <trkpt lat="48.2947" lon="7.33568">
        <ele>407</ele>
        <time>2020-10-20T22:24:28Z</time>
      </trkpt>
      <trkpt lat="48.29491" lon="7.33583">
        <ele>410</ele>
        <time>2020-10-20T22:24:59Z</time>
      </trkpt>
      <trkpt lat="48.29498" lon="7.33593">
        <ele>411</ele>
        <time>2020-10-20T22:25:12Z</time>
      </trkpt>
      <trkpt lat="48.295" lon="7.33607">
        <ele>410</ele>
        <time>2020-10-20T22:25:24Z</time>
      </trkpt>
      <trkpt lat="48.29509" lon="7.33619">
        <ele>410</ele>
        <time>2020-10-20T22:25:40Z</time>
      </trkpt>
      <trkpt lat="48.29518" lon="7.33622">
        <ele>410</ele>
        <time>2020-10-20T22:25:53Z</time>
      </trkpt>
      <trkpt lat="48.29534" lon="7.33639">
        <ele>410</ele>
        <time>2020-10-20T22:26:19Z</time>
      </trkpt>
      <trkpt lat="48.2954" lon="7.33651">
        <ele>409</ele>
        <time>2020-10-20T22:26:32Z</time>
      </trkpt>
      <trkpt lat="48.29566" lon="7.33671">
        <ele>410</ele>
        <time>2020-10-20T22:27:11Z</time>
      </trkpt>
      <trkpt lat="48.29602" lon="7.33688">
        <ele>407</ele>
        <time>2020-10-20T22:28:01Z</time>
      </trkpt>
      <trkpt lat="48.29606" lon="7.337">
        <ele>405</ele>
        <time>2020-10-20T22:28:13Z</time>
      </trkpt>
      <trkpt lat="48.29604" lon="7.33707">
        <ele>404</ele>
        <time>2020-10-20T22:28:20Z</time>
      </trkpt>
      <trkpt lat="48.29623" lon="7.33686">
        <ele>404</ele>
        <time>2020-10-20T22:28:52Z</time>
      </trkpt>
      <trkpt lat="48.29632" lon="7.33683">
        <ele>403</ele>
        <time>2020-10-20T22:29:04Z</time>
      </trkpt>
      <trkpt lat="48.29666" lon="7.33657">
        <ele>402</ele>
        <time>2020-10-20T22:29:55Z</time>
      </trkpt>
      <trkpt lat="48.29689" lon="7.33626">
        <ele>401</ele>
        <time>2020-10-20T22:30:36Z</time>
      </trkpt>
      <trkpt lat="48.297" lon="7.33603">
        <ele>401</ele>
        <time>2020-10-20T22:31:01Z</time>
      </trkpt>
      <trkpt lat="48.2973" lon="7.33581">
        <ele>397</ele>
        <time>2020-10-20T22:31:46Z</time>
      </trkpt>
      <trkpt lat="48.29747" lon="7.33582">
        <ele>392</ele>
        <time>2020-10-20T22:32:08Z</time>
      </trkpt>
      <trkpt lat="48.29755" lon="7.33577">
        <ele>391</ele>
        <time>2020-10-20T22:32:20Z</time>
      </trkpt>
      <trkpt lat="48.29785" lon="7.3354">
        <ele>388</ele>
        <time>2020-10-20T22:33:12Z</time>
      </trkpt>
      <trkpt lat="48.29813" lon="7.3352">
        <ele>383</ele>
        <time>2020-10-20T22:33:53Z</time>
      </trkpt>
      <trkpt lat="48.29849" lon="7.3347">
        <ele>383</ele>
        <time>2020-10-20T22:34:59Z</time>
      </trkpt>
      <trkpt lat="48.29859" lon="7.33445">
        <ele>387</ele>
        <time>2020-10-20T22:35:24Z</time>
      </trkpt>
      <trkpt lat="48.29866" lon="7.33435">
        <ele>389</ele>
        <time>2020-10-20T22:35:37Z</time>
      </trkpt>
      <trkpt lat="48.29876" lon="7.33431">
        <ele>390</ele>
        <time>2020-10-20T22:35:51Z</time>
      </trkpt>
      <trkpt lat="48.29895" lon="7.33438">
        <ele>388</ele>
        <time>2020-10-20T22:36:17Z</time>
      </trkpt>
      <trkpt lat="48.29902" lon="7.33448">
        <ele>387</ele>
        <time>2020-10-20T22:36:30Z</time>
      </trkpt>
      <trkpt lat="48.29927" lon="7.33468">
        <ele>384</ele>
        <time>2020-10-20T22:37:08Z</time>
      </trkpt>
      <trkpt lat="48.29934" lon="7.33479">
        <ele>383</ele>
        <time>2020-10-20T22:37:21Z</time>
      </trkpt>
      <trkpt lat="48.29963" lon="7.33488">
        <ele>385</ele>
        <time>2020-10-20T22:38:01Z</time>
      </trkpt>
      <trkpt lat="48.29986" lon="7.33515">
        <ele>382</ele>
        <time>2020-10-20T22:38:40Z</time>
      </trkpt>
      <trkpt lat="48.29989" lon="7.33529">
        <ele>379</ele>
        <time>2020-10-20T22:38:53Z</time>
      </trkpt>
      <trkpt lat="48.29995" lon="7.3354">
        <ele>378</ele>
        <time>2020-10-20T22:39:06Z</time>
      </trkpt>
      <trkpt lat="48.30004" lon="7.33547">
        <ele>377</ele>
        <time>2020-10-20T22:39:19Z</time>
      </trkpt>
      <trkpt lat="48.30014" lon="7.33545">
        <ele>377</ele>
        <time>2020-10-20T22:39:33Z</time>
      </trkpt>
      <trkpt lat="48.30023" lon="7.33547">
        <ele>377</ele>
        <time>2020-10-20T22:39:45Z</time>
      </trkpt>
      <trkpt lat="48.30041" lon="7.33556">
        <ele>376</ele>
        <time>2020-10-20T22:40:10Z</time>
      </trkpt>
      <trkpt lat="48.30061" lon="7.33552">
        <ele>377</ele>
        <time>2020-10-20T22:40:37Z</time>
      </trkpt>
      <trkpt lat="48.30078" lon="7.33544">
        <ele>378</ele>
        <time>2020-10-20T22:41:01Z</time>
      </trkpt>
      <trkpt lat="48.30087" lon="7.33538">
        <ele>378</ele>
        <time>2020-10-20T22:41:14Z</time>
      </trkpt>
      <trkpt lat="48.30093" lon="7.33527">
        <ele>379</ele>
        <time>2020-10-20T22:41:27Z</time>
      </trkpt>
      <trkpt lat="48.30101" lon="7.33519">
        <ele>378</ele>
        <time>2020-10-20T22:41:39Z</time>
      </trkpt>
      <trkpt lat="48.30119" lon="7.3351">
        <ele>375</ele>
        <time>2020-10-20T22:42:05Z</time>
      </trkpt>
      <trkpt lat="48.30129" lon="7.33486">
        <ele>376</ele>
        <time>2020-10-20T22:42:30Z</time>
      </trkpt>
      <trkpt lat="48.30143" lon="7.33467">
        <ele>375</ele>
        <time>2020-10-20T22:42:55Z</time>
      </trkpt>
      <trkpt lat="48.30169" lon="7.33451">
        <ele>370</ele>
        <time>2020-10-20T22:43:32Z</time>
      </trkpt>
      <trkpt lat="48.30178" lon="7.3345">
        <ele>369</ele>
        <time>2020-10-20T22:43:45Z</time>
      </trkpt>
      <trkpt lat="48.30196" lon="7.33454">
        <ele>367</ele>
        <time>2020-10-20T22:44:09Z</time>
      </trkpt>
      <trkpt lat="48.30215" lon="7.33464">
        <ele>364</ele>
        <time>2020-10-20T22:44:36Z</time>
      </trkpt>
      <trkpt lat="48.30237" lon="7.33492">
        <ele>360</ele>
        <time>2020-10-20T22:45:14Z</time>
      </trkpt>
      <trkpt lat="48.30234" lon="7.33495">
        <ele>360</ele>
        <time>2020-10-20T22:45:19Z</time>
      </trkpt>
      <trkpt lat="48.30241" lon="7.33518">
        <ele>358</ele>
        <time>2020-10-20T22:45:41Z</time>
      </trkpt>
      <trkpt lat="48.30248" lon="7.33529">
        <ele>357</ele>
        <time>2020-10-20T22:45:55Z</time>
      </trkpt>
      <trkpt lat="48.30256" lon="7.33536">
        <ele>356</ele>
        <time>2020-10-20T22:46:07Z</time>
      </trkpt>
      <trkpt lat="48.3026" lon="7.3355">
        <ele>356</ele>
        <time>2020-10-20T22:46:21Z</time>
      </trkpt>
      <trkpt lat="48.30259" lon="7.33572">
        <ele>355</ele>
        <time>2020-10-20T22:46:40Z</time>
      </trkpt>
      <trkpt lat="48.303" lon="7.33549">
        <ele>358</ele>
        <time>2020-10-20T22:47:39Z</time>
      </trkpt>
      <trkpt lat="48.30307" lon="7.33552">
        <ele>358</ele>
        <time>2020-10-20T22:47:48Z</time>
      </trkpt>
      <trkpt lat="48.30288" lon="7.33551">
        <ele>357</ele>
        <time>2020-10-20T22:48:14Z</time>
      </trkpt>
      <trkpt lat="48.30279" lon="7.33555">
        <ele>357</ele>
        <time>2020-10-20T22:48:26Z</time>
      </trkpt>
      <trkpt lat="48.30273" lon="7.33561">
        <ele>356</ele>
        <time>2020-10-20T22:48:36Z</time>
      </trkpt>
      <trkpt lat="48.30247" lon="7.33521">
        <ele>357</ele>
        <time>2020-10-20T22:49:26Z</time>
      </trkpt>
      <trkpt lat="48.30236" lon="7.33496">
        <ele>359</ele>
        <time>2020-10-20T22:49:52Z</time>
      </trkpt>
      <trkpt lat="48.30227" lon="7.33486">
        <ele>361</ele>
        <time>2020-10-20T22:50:07Z</time>
      </trkpt>
      <trkpt lat="48.30221" lon="7.33473">
        <ele>363</ele>
        <time>2020-10-20T22:50:21Z</time>
      </trkpt>
      <trkpt lat="48.30219" lon="7.3345">
        <ele>364</ele>
        <time>2020-10-20T22:50:42Z</time>
      </trkpt>
      <trkpt lat="48.30221" lon="7.33421">
        <ele>366</ele>
        <time>2020-10-20T22:51:08Z</time>
      </trkpt>
      <trkpt lat="48.30226" lon="7.33408">
        <ele>366</ele>
        <time>2020-10-20T22:51:21Z</time>
      </trkpt>
      <trkpt lat="48.30227" lon="7.33392">
        <ele>366</ele>
        <time>2020-10-20T22:51:35Z</time>
      </trkpt>
      <trkpt lat="48.30224" lon="7.33378">
        <ele>366</ele>
        <time>2020-10-20T22:51:48Z</time>
      </trkpt>
      <trkpt lat="48.30216" lon="7.33371">
        <ele>367</ele>
        <time>2020-10-20T22:52:01Z</time>
      </trkpt>
      <trkpt lat="48.30207" lon="7.3337">
        <ele>368</ele>
        <time>2020-10-20T22:52:13Z</time>
      </trkpt>
      <trkpt lat="48.30197" lon="7.33373">
        <ele>370</ele>
        <time>2020-10-20T22:52:26Z</time>
      </trkpt>
      <trkpt lat="48.3019" lon="7.33383">
        <ele>371</ele>
        <time>2020-10-20T22:52:39Z</time>
      </trkpt>
      <trkpt lat="48.3018" lon="7.33382">
        <ele>372</ele>
        <time>2020-10-20T22:52:53Z</time>
      </trkpt>
      <trkpt lat="48.30162" lon="7.33389">
        <ele>376</ele>
        <time>2020-10-20T22:53:17Z</time>
      </trkpt>
      <trkpt lat="48.30153" lon="7.33384">
        <ele>379</ele>
        <time>2020-10-20T22:53:30Z</time>
      </trkpt>
      <trkpt lat="48.30154" lon="7.33371">
        <ele>379</ele>
        <time>2020-10-20T22:53:42Z</time>
      </trkpt>
      <trkpt lat="48.30138" lon="7.33333">
        <ele>385</ele>
        <time>2020-10-20T22:54:22Z</time>
      </trkpt>
      <trkpt lat="48.30131" lon="7.33292">
        <ele>386</ele>
        <time>2020-10-20T22:54:59Z</time>
      </trkpt>
      <trkpt lat="48.30119" lon="7.33252">
        <ele>390</ele>
        <time>2020-10-20T22:55:38Z</time>
      </trkpt>
      <trkpt lat="48.3011" lon="7.33245">
        <ele>394</ele>
        <time>2020-10-20T22:55:52Z</time>
      </trkpt>
      <trkpt lat="48.30102" lon="7.3322">
        <ele>395</ele>
        <time>2020-10-20T22:56:16Z</time>
      </trkpt>
      <trkpt lat="48.30083" lon="7.33186">
        <ele>400</ele>
        <time>2020-10-20T22:56:56Z</time>
      </trkpt>
      <trkpt lat="48.30059" lon="7.33163">
        <ele>407</ele>
        <time>2020-10-20T22:57:34Z</time>
      </trkpt>
      <trkpt lat="48.30058" lon="7.33156">
        <ele>407</ele>
        <time>2020-10-20T22:57:40Z</time>
      </trkpt>
      <trkpt lat="48.30031" lon="7.33124">
        <ele>417</ele>
        <time>2020-10-20T22:58:26Z</time>
      </trkpt>
      <trkpt lat="48.30027" lon="7.33116">
        <ele>419</ele>
        <time>2020-10-20T22:58:35Z</time>
      </trkpt>
      <trkpt lat="48.30025" lon="7.33087">
        <ele>420</ele>
        <time>2020-10-20T22:59:01Z</time>
      </trkpt>
      <trkpt lat="48.30027" lon="7.33072">
        <ele>420</ele>
        <time>2020-10-20T22:59:14Z</time>
      </trkpt>
      <trkpt lat="48.30018" lon="7.33045">
        <ele>426</ele>
        <time>2020-10-20T22:59:41Z</time>
      </trkpt>
      <trkpt lat="48.30032" lon="7.33026">
        <ele>423</ele>
        <time>2020-10-20T23:00:06Z</time>
      </trkpt>
      <trkpt lat="48.30036" lon="7.33014">
        <ele>424</ele>
        <time>2020-10-20T23:00:18Z</time>
      </trkpt>
      <trkpt lat="48.30035" lon="7.32986">
        <ele>428</ele>
        <time>2020-10-20T23:00:43Z</time>
      </trkpt>
      <trkpt lat="48.30039" lon="7.32974">
        <ele>428</ele>
        <time>2020-10-20T23:00:55Z</time>
      </trkpt>
      <trkpt lat="48.30032" lon="7.32968">
        <ele>431</ele>
        <time>2020-10-20T23:01:06Z</time>
      </trkpt>
      <trkpt lat="48.30028" lon="7.32973">
        <ele>432</ele>
        <time>2020-10-20T23:01:13Z</time>
      </trkpt>
      <trkpt lat="48.3002" lon="7.32972">
        <ele>434</ele>
        <time>2020-10-20T23:01:24Z</time>
      </trkpt>
      <trkpt lat="48.30048" lon="7.32926">
        <ele>432</ele>
        <time>2020-10-20T23:02:19Z</time>
      </trkpt>
      <trkpt lat="48.30056" lon="7.32918">
        <ele>430</ele>
        <time>2020-10-20T23:02:32Z</time>
      </trkpt>
      <trkpt lat="48.30048" lon="7.3293">
        <ele>431</ele>
        <time>2020-10-20T23:02:47Z</time>
      </trkpt>
      <trkpt lat="48.30049" lon="7.32932">
        <ele>431</ele>
        <time>2020-10-20T23:02:49Z</time>
      </trkpt>
      <trkpt lat="48.30026" lon="7.32788">
        <ele>453</ele>
        <time>2020-10-20T23:05:00Z</time>
      </trkpt>
      <trkpt lat="48.3002" lon="7.32777">
        <ele>456</ele>
        <time>2020-10-20T23:05:13Z</time>
      </trkpt>
      <trkpt lat="48.30027" lon="7.32768">
        <ele>454</ele>
        <time>2020-10-20T23:05:25Z</time>
      </trkpt>
      <trkpt lat="48.30031" lon="7.32755">
        <ele>453</ele>
        <time>2020-10-20T23:05:38Z</time>
      </trkpt>
      <trkpt lat="48.30023" lon="7.32745">
        <ele>458</ele>
        <time>2020-10-20T23:05:52Z</time>
      </trkpt>
      <trkpt lat="48.30025" lon="7.3273">
        <ele>460</ele>
        <time>2020-10-20T23:06:06Z</time>
      </trkpt>
      <trkpt lat="48.30019" lon="7.32742">
        <ele>460</ele>
        <time>2020-10-20T23:06:19Z</time>
      </trkpt>
      <trkpt lat="48.30019" lon="7.32728">
        <ele>462</ele>
        <time>2020-10-20T23:06:31Z</time>
      </trkpt>
      <trkpt lat="48.30001" lon="7.32753">
        <ele>465</ele>
        <time>2020-10-20T23:07:04Z</time>
      </trkpt>
      <trkpt lat="48.29996" lon="7.32755">
        <ele>468</ele>
        <time>2020-10-20T23:07:11Z</time>
      </trkpt>
      <trkpt lat="48.30003" lon="7.32746">
        <ele>466</ele>
        <time>2020-10-20T23:07:23Z</time>
      </trkpt>
      <trkpt lat="48.30019" lon="7.32749">
        <ele>458</ele>
        <time>2020-10-20T23:07:45Z</time>
      </trkpt>
      <trkpt lat="48.3002" lon="7.32737">
        <ele>460</ele>
        <time>2020-10-20T23:07:55Z</time>
      </trkpt>
      <trkpt lat="48.30015" lon="7.3275">
        <ele>460</ele>
        <time>2020-10-20T23:08:09Z</time>
      </trkpt>
      <trkpt lat="48.30024" lon="7.32745">
        <ele>457</ele>
        <time>2020-10-20T23:08:22Z</time>
      </trkpt>
      <trkpt lat="48.30009" lon="7.3273">
        <ele>466</ele>
        <time>2020-10-20T23:08:46Z</time>
      </trkpt>
      <trkpt lat="48.30011" lon="7.32708">
        <ele>469</ele>
        <time>2020-10-20T23:09:05Z</time>
      </trkpt>
      <trkpt lat="48.30003" lon="7.32688">
        <ele>476</ele>
        <time>2020-10-20T23:09:26Z</time>
      </trkpt>
      <trkpt lat="48.30001" lon="7.32692">
        <ele>476</ele>
        <time>2020-10-20T23:09:30Z</time>
      </trkpt>
      <trkpt lat="48.29992" lon="7.32695">
        <ele>480</ele>
        <time>2020-10-20T23:09:43Z</time>
      </trkpt>
      <trkpt lat="48.29994" lon="7.3269">
        <ele>480</ele>
        <time>2020-10-20T23:09:48Z</time>
      </trkpt>
      <trkpt lat="48.30009" lon="7.3269">
        <ele>473</ele>
        <time>2020-10-20T23:10:08Z</time>
      </trkpt>
      <trkpt lat="48.30002" lon="7.32699">
        <ele>474</ele>
        <time>2020-10-20T23:10:20Z</time>
      </trkpt>
      <trkpt lat="48.30013" lon="7.32694">
        <ele>471</ele>
        <time>2020-10-20T23:10:36Z</time>
      </trkpt>
      <trkpt lat="48.30011" lon="7.32693">
        <ele>472</ele>
        <time>2020-10-20T23:10:38Z</time>
      </trkpt>
      <trkpt lat="48.30015" lon="7.32704">
        <ele>469</ele>
        <time>2020-10-20T23:10:50Z</time>
      </trkpt>
      <trkpt lat="48.30012" lon="7.32694">
        <ele>472</ele>
        <time>2020-10-20T23:10:59Z</time>
      </trkpt>
      <trkpt lat="48.30002" lon="7.32697">
        <ele>475</ele>
        <time>2020-10-20T23:11:13Z</time>
      </trkpt>
      <trkpt lat="48.30016" lon="7.32704">
        <ele>468</ele>
        <time>2020-10-20T23:11:33Z</time>
      </trkpt>
      <trkpt lat="48.30028" lon="7.32702">
        <ele>464</ele>
        <time>2020-10-20T23:11:49Z</time>
      </trkpt>
      <trkpt lat="48.30037" lon="7.32699">
        <ele>461</ele>
        <time>2020-10-20T23:12:01Z</time>
      </trkpt>
      <trkpt lat="48.30036" lon="7.32684">
        <ele>465</ele>
        <time>2020-10-20T23:12:14Z</time>
      </trkpt>
      <trkpt lat="48.30025" lon="7.32677">
        <ele>470</ele>
        <time>2020-10-20T23:12:30Z</time>
      </trkpt>
      <trkpt lat="48.30018" lon="7.32691">
        <ele>470</ele>
        <time>2020-10-20T23:12:46Z</time>
      </trkpt>
      <trkpt lat="48.30011" lon="7.32714">
        <ele>468</ele>
        <time>2020-10-20T23:13:08Z</time>
      </trkpt>
      <trkpt lat="48.30006" lon="7.32715">
        <ele>470</ele>
        <time>2020-10-20T23:13:15Z</time>
      </trkpt>
      <trkpt lat="48.30006" lon="7.32719">
        <ele>469</ele>
        <time>2020-10-20T23:13:19Z</time>
      </trkpt>
      <trkpt lat="48.29987" lon="7.32712">
        <ele>479</ele>
        <time>2020-10-20T23:13:45Z</time>
      </trkpt>
      <trkpt lat="48.29993" lon="7.32708">
        <ele>477</ele>
        <time>2020-10-20T23:13:53Z</time>
      </trkpt>
      <trkpt lat="48.3" lon="7.32698">
        <ele>475</ele>
        <time>2020-10-20T23:14:06Z</time>
      </trkpt>
      <trkpt lat="48.29998" lon="7.3267">
        <ele>481</ele>
        <time>2020-10-20T23:14:31Z</time>
      </trkpt>
      <trkpt lat="48.3" lon="7.32642">
        <ele>487</ele>
        <time>2020-10-20T23:14:56Z</time>
      </trkpt>
      <trkpt lat="48.30004" lon="7.32629">
        <ele>489</ele>
        <time>2020-10-20T23:15:09Z</time>
      </trkpt>
      <trkpt lat="48.30015" lon="7.32605">
        <ele>492</ele>
        <time>2020-10-20T23:15:35Z</time>
      </trkpt>
      <trkpt lat="48.30024" lon="7.32598">
        <ele>491</ele>
        <time>2020-10-20T23:15:48Z</time>
      </trkpt>
      <trkpt lat="48.30033" lon="7.32595">
        <ele>489</ele>
        <time>2020-10-20T23:16:01Z</time>
      </trkpt>
      <trkpt lat="48.30035" lon="7.32582">
        <ele>492</ele>
        <time>2020-10-20T23:16:13Z</time>
      </trkpt>
      <trkpt lat="48.30042" lon="7.32572">
        <ele>491</ele>
        <time>2020-10-20T23:16:26Z</time>
      </trkpt>
      <trkpt lat="48.30043" lon="7.32543">
        <ele>493</ele>
        <time>2020-10-20T23:16:51Z</time>
      </trkpt>
      <trkpt lat="48.30041" lon="7.3254">
        <ele>494</ele>
        <time>2020-10-20T23:16:55Z</time>
      </trkpt>
      <trkpt lat="48.30052" lon="7.32531">
        <ele>491</ele>
        <time>2020-10-20T23:17:12Z</time>
      </trkpt>
      <trkpt lat="48.30045" lon="7.32542">
        <ele>493</ele>
        <time>2020-10-20T23:17:25Z</time>
      </trkpt>
      <trkpt lat="48.29977" lon="7.32578">
        <ele>513</ele>
        <time>2020-10-20T23:19:01Z</time>
      </trkpt>
      <trkpt lat="48.2997" lon="7.32589">
        <ele>514</ele>
        <time>2020-10-20T23:19:15Z</time>
      </trkpt>
      <trkpt lat="48.29969" lon="7.32602">
        <ele>511</ele>
        <time>2020-10-20T23:19:27Z</time>
      </trkpt>
      <trkpt lat="48.2996" lon="7.32608">
        <ele>514</ele>
        <time>2020-10-20T23:19:40Z</time>
      </trkpt>
      <trkpt lat="48.29951" lon="7.32607">
        <ele>518</ele>
        <time>2020-10-20T23:19:52Z</time>
      </trkpt>
      <trkpt lat="48.29942" lon="7.32612">
        <ele>521</ele>
        <time>2020-10-20T23:20:05Z</time>
      </trkpt>
      <trkpt lat="48.29935" lon="7.32622">
        <ele>521</ele>
        <time>2020-10-20T23:20:17Z</time>
      </trkpt>
      <trkpt lat="48.29926" lon="7.32628">
        <ele>524</ele>
        <time>2020-10-20T23:20:31Z</time>
      </trkpt>
      <trkpt lat="48.29919" lon="7.32637">
        <ele>525</ele>
        <time>2020-10-20T23:20:43Z</time>
      </trkpt>
      <trkpt lat="48.29906" lon="7.32644">
        <ele>530</ele>
        <time>2020-10-20T23:21:01Z</time>
      </trkpt>
      <trkpt lat="48.29899" lon="7.32632">
        <ele>536</ele>
        <time>2020-10-20T23:21:16Z</time>
      </trkpt>
      <trkpt lat="48.29897" lon="7.32648">
        <ele>533</ele>
        <time>2020-10-20T23:21:30Z</time>
      </trkpt>
      <trkpt lat="48.29886" lon="7.32671">
        <ele>534</ele>
        <time>2020-10-20T23:21:55Z</time>
      </trkpt>
      <trkpt lat="48.29877" lon="7.32675">
        <ele>538</ele>
        <time>2020-10-20T23:22:08Z</time>
      </trkpt>
      <trkpt lat="48.29854" lon="7.32699">
        <ele>545</ele>
        <time>2020-10-20T23:22:45Z</time>
      </trkpt>
      <trkpt lat="48.29848" lon="7.32712">
        <ele>546</ele>
        <time>2020-10-20T23:22:59Z</time>
      </trkpt>
      <trkpt lat="48.2984" lon="7.32721">
        <ele>549</ele>
        <time>2020-10-20T23:23:12Z</time>
      </trkpt>
      <trkpt lat="48.29835" lon="7.32734">
        <ele>550</ele>
        <time>2020-10-20T23:23:26Z</time>
      </trkpt>
      <trkpt lat="48.29835" lon="7.32749">
        <ele>547</ele>
        <time>2020-10-20T23:23:39Z</time>
      </trkpt>
      <trkpt lat="48.29832" lon="7.32762">
        <ele>547</ele>
        <time>2020-10-20T23:23:51Z</time>
      </trkpt>
      <trkpt lat="48.29825" lon="7.32772">
        <ele>549</ele>
        <time>2020-10-20T23:24:04Z</time>
      </trkpt>
      <trkpt lat="48.29809" lon="7.32785">
        <ele>555</ele>
        <time>2020-10-20T23:24:28Z</time>
      </trkpt>
      <trkpt lat="48.29784" lon="7.32826">
        <ele>559</ele>
        <time>2020-10-20T23:25:18Z</time>
      </trkpt>
      <trkpt lat="48.29776" lon="7.32834">
        <ele>561</ele>
        <time>2020-10-20T23:25:31Z</time>
      </trkpt>
      <trkpt lat="48.29766" lon="7.32837">
        <ele>563</ele>
        <time>2020-10-20T23:25:44Z</time>
      </trkpt>
      <trkpt lat="48.29758" lon="7.32843">
        <ele>565</ele>
        <time>2020-10-20T23:25:56Z</time>
      </trkpt>
      <trkpt lat="48.29735" lon="7.3287">
        <ele>566</ele>
        <time>2020-10-20T23:26:35Z</time>
      </trkpt>
      <trkpt lat="48.29717" lon="7.32883">
        <ele>568</ele>
        <time>2020-10-20T23:27:02Z</time>
      </trkpt>
      <trkpt lat="48.29711" lon="7.32872">
        <ele>572</ele>
        <time>2020-10-20T23:27:14Z</time>
      </trkpt>
      <trkpt lat="48.29704" lon="7.32865">
        <ele>575</ele>
        <time>2020-10-20T23:27:26Z</time>
      </trkpt>
      <trkpt lat="48.29683" lon="7.32896">
        <ele>573</ele>
        <time>2020-10-20T23:28:05Z</time>
      </trkpt>
      <trkpt lat="48.29664" lon="7.32904">
        <ele>575</ele>
        <time>2020-10-20T23:28:31Z</time>
      </trkpt>
      <trkpt lat="48.29655" lon="7.32903">
        <ele>576</ele>
        <time>2020-10-20T23:28:43Z</time>
      </trkpt>
      <trkpt lat="48.29647" lon="7.32893">
        <ele>580</ele>
        <time>2020-10-20T23:28:57Z</time>
      </trkpt>
      <trkpt lat="48.29638" lon="7.32896">
        <ele>580</ele>
        <time>2020-10-20T23:29:09Z</time>
      </trkpt>
      <trkpt lat="48.2962" lon="7.32888">
        <ele>584</ele>
        <time>2020-10-20T23:29:34Z</time>
      </trkpt>
      <trkpt lat="48.29601" lon="7.3289">
        <ele>586</ele>
        <time>2020-10-20T23:30:00Z</time>
      </trkpt>
      <trkpt lat="48.29582" lon="7.32885">
        <ele>589</ele>
        <time>2020-10-20T23:30:26Z</time>
      </trkpt>
      <trkpt lat="48.29574" lon="7.3289">
        <ele>588</ele>
        <time>2020-10-20T23:30:37Z</time>
      </trkpt>
      <trkpt lat="48.29568" lon="7.32901">
        <ele>584</ele>
        <time>2020-10-20T23:30:50Z</time>
      </trkpt>
      <trkpt lat="48.29559" lon="7.32895">
        <ele>586</ele>
        <time>2020-10-20T23:31:03Z</time>
      </trkpt>
      <trkpt lat="48.29551" lon="7.32865">
        <ele>597</ele>
        <time>2020-10-20T23:31:32Z</time>
      </trkpt>
      <trkpt lat="48.29561" lon="7.32864">
        <ele>597</ele>
        <time>2020-10-20T23:31:45Z</time>
      </trkpt>
      <trkpt lat="48.29565" lon="7.32852">
        <ele>602</ele>
        <time>2020-10-20T23:31:57Z</time>
      </trkpt>
      <trkpt lat="48.29575" lon="7.32857">
        <ele>600</ele>
        <time>2020-10-20T23:32:11Z</time>
      </trkpt>
      <trkpt lat="48.29565" lon="7.32855">
        <ele>600</ele>
        <time>2020-10-20T23:32:24Z</time>
      </trkpt>
      <trkpt lat="48.29556" lon="7.32861">
        <ele>598</ele>
        <time>2020-10-20T23:32:38Z</time>
      </trkpt>
      <trkpt lat="48.29559" lon="7.32861">
        <ele>598</ele>
        <time>2020-10-20T23:32:42Z</time>
      </trkpt>
      <trkpt lat="48.29542" lon="7.32861">
        <ele>599</ele>
        <time>2020-10-20T23:33:04Z</time>
      </trkpt>
      <trkpt lat="48.29528" lon="7.3287">
        <ele>596</ele>
        <time>2020-10-20T23:33:25Z</time>
      </trkpt>
      <trkpt lat="48.29507" lon="7.32872">
        <ele>595</ele>
        <time>2020-10-20T23:33:53Z</time>
      </trkpt>
      <trkpt lat="48.29488" lon="7.32879">
        <ele>592</ele>
        <time>2020-10-20T23:34:19Z</time>
      </trkpt>
      <trkpt lat="48.29469" lon="7.32871">
        <ele>592</ele>
        <time>2020-10-20T23:34:45Z</time>
      </trkpt>
      <trkpt lat="48.29463" lon="7.3286">
        <ele>595</ele>
        <time>2020-10-20T23:34:58Z</time>
      </trkpt>
      <trkpt lat="48.29464" lon="7.32845">
        <ele>600</ele>
        <time>2020-10-20T23:35:11Z</time>
      </trkpt>
      <trkpt lat="48.29472" lon="7.32835">
        <ele>604</ele>
        <time>2020-10-20T23:35:25Z</time>
      </trkpt>
      <trkpt lat="48.29481" lon="7.32852">
        <ele>600</ele>
        <time>2020-10-20T23:35:44Z</time>
      </trkpt>
      <trkpt lat="48.29458" lon="7.32861">
        <ele>594</ele>
        <time>2020-10-20T23:36:16Z</time>
      </trkpt>
      <trkpt lat="48.29449" lon="7.32863">
        <ele>592</ele>
        <time>2020-10-20T23:36:28Z</time>
      </trkpt>
      <trkpt lat="48.29439" lon="7.32861">
        <ele>591</ele>
        <time>2020-10-20T23:36:42Z</time>
      </trkpt>
      <trkpt lat="48.29421" lon="7.32851">
        <ele>592</ele>
        <time>2020-10-20T23:37:07Z</time>
      </trkpt>
      <trkpt lat="48.29407" lon="7.32832">
        <ele>594</ele>
        <time>2020-10-20T23:37:32Z</time>
      </trkpt>
      <trkpt lat="48.29399" lon="7.32825">
        <ele>594</ele>
        <time>2020-10-20T23:37:45Z</time>
      </trkpt>
      <trkpt lat="48.29383" lon="7.32791">
        <ele>598</ele>
        <time>2020-10-20T23:38:22Z</time>
      </trkpt>
      <trkpt lat="48.29375" lon="7.32784">
        <ele>597</ele>
        <time>2020-10-20T23:38:34Z</time>
      </trkpt>
      <trkpt lat="48.29362" lon="7.32764">
        <ele>597</ele>
        <time>2020-10-20T23:38:59Z</time>
      </trkpt>
      <trkpt lat="48.29356" lon="7.32737">
        <ele>601</ele>
        <time>2020-10-20T23:39:24Z</time>
      </trkpt>
      <trkpt lat="48.29327" lon="7.32699">
        <ele>598</ele>
        <time>2020-10-20T23:40:16Z</time>
      </trkpt>
      <trkpt lat="48.2931" lon="7.32647">
        <ele>597</ele>
        <time>2020-10-20T23:41:07Z</time>
      </trkpt>
      <trkpt lat="48.29301" lon="7.32601">
        <ele>595</ele>
        <time>2020-10-20T23:41:50Z</time>
      </trkpt>
      <trkpt lat="48.29294" lon="7.3259">
        <ele>591</ele>
        <time>2020-10-20T23:42:03Z</time>
      </trkpt>
      <trkpt lat="48.29302" lon="7.32557">
        <ele>595</ele>
        <time>2020-10-20T23:42:34Z</time>
      </trkpt>
      <trkpt lat="48.29308" lon="7.32544">
        <ele>599</ele>
        <time>2020-10-20T23:42:48Z</time>
      </trkpt>
      <trkpt lat="48.29309" lon="7.32515">
        <ele>598</ele>
        <time>2020-10-20T23:43:14Z</time>
      </trkpt>
      <trkpt lat="48.29318" lon="7.32489">
        <ele>602</ele>
        <time>2020-10-20T23:43:40Z</time>
      </trkpt>
      <trkpt lat="48.29319" lon="7.32474">
        <ele>601</ele>
        <time>2020-10-20T23:43:53Z</time>
      </trkpt>
      <trkpt lat="48.29329" lon="7.32435">
        <ele>603</ele>
        <time>2020-10-20T23:44:31Z</time>
      </trkpt>
      <trkpt lat="48.29355" lon="7.32392">
        <ele>612</ele>
        <time>2020-10-20T23:45:22Z</time>
      </trkpt>
      <trkpt lat="48.29362" lon="7.32363">
        <ele>612</ele>
        <time>2020-10-20T23:45:50Z</time>
      </trkpt>
      <trkpt lat="48.29371" lon="7.32357">
        <ele>615</ele>
        <time>2020-10-20T23:46:03Z</time>
      </trkpt>
      <trkpt lat="48.29372" lon="7.32343">
        <ele>614</ele>
        <time>2020-10-20T23:46:15Z</time>
      </trkpt>
      <trkpt lat="48.29395" lon="7.32318">
        <ele>621</ele>
        <time>2020-10-20T23:46:53Z</time>
      </trkpt>
      <trkpt lat="48.29392" lon="7.32303">
        <ele>618</ele>
        <time>2020-10-20T23:47:07Z</time>
      </trkpt>
      <trkpt lat="48.2942" lon="7.32283">
        <ele>627</ele>
        <time>2020-10-20T23:47:48Z</time>
      </trkpt>
      <trkpt lat="48.29426" lon="7.32271">
        <ele>627</ele>
        <time>2020-10-20T23:48:02Z</time>
      </trkpt>
      <trkpt lat="48.29436" lon="7.32269">
        <ele>631</ele>
        <time>2020-10-20T23:48:15Z</time>
      </trkpt>
      <trkpt lat="48.29431" lon="7.3228">
        <ele>631</ele>
        <time>2020-10-20T23:48:27Z</time>
      </trkpt>
      <trkpt lat="48.29422" lon="7.32276">
        <ele>627</ele>
        <time>2020-10-20T23:48:39Z</time>
      </trkpt>
      <trkpt lat="48.29423" lon="7.32281">
        <ele>628</ele>
        <time>2020-10-20T23:48:44Z</time>
      </trkpt>
      <trkpt lat="48.29427" lon="7.32271">
        <ele>628</ele>
        <time>2020-10-20T23:48:54Z</time>
      </trkpt>
      <trkpt lat="48.29436" lon="7.32262">
        <ele>630</ele>
        <time>2020-10-20T23:49:09Z</time>
      </trkpt>
      <trkpt lat="48.29451" lon="7.32269">
        <ele>637</ele>
        <time>2020-10-20T23:49:30Z</time>
      </trkpt>
      <trkpt lat="48.29453" lon="7.32254">
        <ele>635</ele>
        <time>2020-10-20T23:49:43Z</time>
      </trkpt>
      <trkpt lat="48.29469" lon="7.32241">
        <ele>639</ele>
        <time>2020-10-20T23:50:08Z</time>
      </trkpt>
      <trkpt lat="48.29484" lon="7.3222">
        <ele>642</ele>
        <time>2020-10-20T23:50:35Z</time>
      </trkpt>
      <trkpt lat="48.29492" lon="7.32213">
        <ele>644</ele>
        <time>2020-10-20T23:50:47Z</time>
      </trkpt>
      <trkpt lat="48.29501" lon="7.32209">
        <ele>647</ele>
        <time>2020-10-20T23:51:00Z</time>
      </trkpt>
      <trkpt lat="48.29508" lon="7.322">
        <ele>647</ele>
        <time>2020-10-20T23:51:12Z</time>
      </trkpt>
      <trkpt lat="48.29527" lon="7.32194">
        <ele>650</ele>
        <time>2020-10-20T23:51:38Z</time>
      </trkpt>
      <trkpt lat="48.29538" lon="7.32182">
        <ele>651</ele>
        <time>2020-10-20T23:51:56Z</time>
      </trkpt>
      <trkpt lat="48.29551" lon="7.32161">
        <ele>652</ele>
        <time>2020-10-20T23:52:22Z</time>
      </trkpt>
      <trkpt lat="48.29552" lon="7.32147">
        <ele>652</ele>
        <time>2020-10-20T23:52:34Z</time>
      </trkpt>
      <trkpt lat="48.29564" lon="7.32127">
        <ele>654</ele>
        <time>2020-10-20T23:52:58Z</time>
      </trkpt>
      <trkpt lat="48.29554" lon="7.32125">
        <ele>652</ele>
        <time>2020-10-20T23:53:12Z</time>
      </trkpt>
      <trkpt lat="48.29584" lon="7.32128">
        <ele>658</ele>
        <time>2020-10-20T23:53:52Z</time>
      </trkpt>
      <trkpt lat="48.29574" lon="7.32125">
        <ele>656</ele>
        <time>2020-10-20T23:54:05Z</time>
      </trkpt>
      <trkpt lat="48.29576" lon="7.32124">
        <ele>656</ele>
        <time>2020-10-20T23:54:08Z</time>
      </trkpt>
      <trkpt lat="48.29566" lon="7.32124">
        <ele>654</ele>
        <time>2020-10-20T23:54:22Z</time>
      </trkpt>
      <trkpt lat="48.29565" lon="7.3213">
        <ele>654</ele>
        <time>2020-10-20T23:54:27Z</time>
      </trkpt>
      <trkpt lat="48.29582" lon="7.32192">
        <ele>662</ele>
        <time>2020-10-20T23:55:27Z</time>
      </trkpt>
      <trkpt lat="48.29574" lon="7.32222">
        <ele>663</ele>
        <time>2020-10-20T23:55:55Z</time>
      </trkpt>
      <trkpt lat="48.29577" lon="7.32238">
        <ele>666</ele>
        <time>2020-10-20T23:56:10Z</time>
      </trkpt>
      <trkpt lat="48.29573" lon="7.32253">
        <ele>666</ele>
        <time>2020-10-20T23:56:24Z</time>
      </trkpt>
      <trkpt lat="48.29573" lon="7.32269">
        <ele>668</ele>
        <time>2020-10-20T23:56:39Z</time>
      </trkpt>
      <trkpt lat="48.29576" lon="7.32283">
        <ele>670</ele>
        <time>2020-10-20T23:56:52Z</time>
      </trkpt>
      <trkpt lat="48.29583" lon="7.32293">
        <ele>672</ele>
        <time>2020-10-20T23:57:05Z</time>
      </trkpt>
      <trkpt lat="48.29591" lon="7.32333">
        <ele>673</ele>
        <time>2020-10-20T23:57:42Z</time>
      </trkpt>
      <trkpt lat="48.29583" lon="7.32339">
        <ele>677</ele>
        <time>2020-10-20T23:57:54Z</time>
      </trkpt>
      <trkpt lat="48.29574" lon="7.3234">
        <ele>676</ele>
        <time>2020-10-20T23:58:06Z</time>
      </trkpt>
      <trkpt lat="48.29564" lon="7.32337">
        <ele>675</ele>
        <time>2020-10-20T23:58:19Z</time>
      </trkpt>
      <trkpt lat="48.2957" lon="7.32346">
        <ele>677</ele>
        <time>2020-10-20T23:58:30Z</time>
      </trkpt>
      <trkpt lat="48.29562" lon="7.32374">
        <ele>680</ele>
        <time>2020-10-20T23:58:58Z</time>
      </trkpt>
      <trkpt lat="48.29538" lon="7.32394">
        <ele>682</ele>
        <time>2020-10-20T23:59:34Z</time>
      </trkpt>
      <trkpt lat="48.2951" lon="7.32434">
        <ele>688</ele>
        <time>2020-10-21T00:00:26Z</time>
      </trkpt>
      <trkpt lat="48.29502" lon="7.32441">
        <ele>689</ele>
        <time>2020-10-21T00:00:38Z</time>
      </trkpt>
      <trkpt lat="48.29499" lon="7.32455">
        <ele>690</ele>
        <time>2020-10-21T00:00:51Z</time>
      </trkpt>
      <trkpt lat="48.29506" lon="7.32465">
        <ele>691</ele>
        <time>2020-10-21T00:01:04Z</time>
      </trkpt>
      <trkpt lat="48.29526" lon="7.3246">
        <ele>690</ele>
        <time>2020-10-21T00:01:31Z</time>
      </trkpt>
      <trkpt lat="48.29535" lon="7.32464">
        <ele>690</ele>
        <time>2020-10-21T00:01:44Z</time>
      </trkpt>
      <trkpt lat="48.29541" lon="7.32474">
        <ele>690</ele>
        <time>2020-10-21T00:01:56Z</time>
      </trkpt>
      <trkpt lat="48.29546" lon="7.32474">
        <ele>690</ele>
        <time>2020-10-21T00:02:02Z</time>
      </trkpt>
      <trkpt lat="48.29557" lon="7.32524">
        <ele>691</ele>
        <time>2020-10-21T00:02:49Z</time>
      </trkpt>
      <trkpt lat="48.29548" lon="7.32531">
        <ele>691</ele>
        <time>2020-10-21T00:03:02Z</time>
      </trkpt>
      <trkpt lat="48.29539" lon="7.3253">
        <ele>691</ele>
        <time>2020-10-21T00:03:15Z</time>
      </trkpt>
      <trkpt lat="48.29532" lon="7.32539">
        <ele>691</ele>
        <time>2020-10-21T00:03:27Z</time>
      </trkpt>
      <trkpt lat="48.29523" lon="7.32544">
        <ele>691</ele>
        <time>2020-10-21T00:03:40Z</time>
      </trkpt>
      <trkpt lat="48.29521" lon="7.3253">
        <ele>692</ele>
        <time>2020-10-21T00:03:52Z</time>
      </trkpt>
      <trkpt lat="48.29523" lon="7.32528">
        <ele>692</ele>
        <time>2020-10-21T00:03:56Z</time>
      </trkpt>
      <trkpt lat="48.29492" lon="7.32503">
        <ele>692</ele>
        <time>2020-10-21T00:04:42Z</time>
      </trkpt>
      <trkpt lat="48.29489" lon="7.32509">
        <ele>690</ele>
        <time>2020-10-21T00:04:49Z</time>
      </trkpt>
      <trkpt lat="48.29512" lon="7.32518">
        <ele>693</ele>
        <time>2020-10-21T00:05:21Z</time>
      </trkpt>
      <trkpt lat="48.29515" lon="7.32517">
        <ele>693</ele>
        <time>2020-10-21T00:05:25Z</time>
      </trkpt>
      <trkpt lat="48.29518" lon="7.3253">
        <ele>692</ele>
        <time>2020-10-21T00:05:37Z</time>
      </trkpt>
      <trkpt lat="48.29528" lon="7.32529">
        <ele>692</ele>
        <time>2020-10-21T00:05:51Z</time>
      </trkpt>
      <trkpt lat="48.29549" lon="7.32537">
        <ele>691</ele>
        <time>2020-10-21T00:06:19Z</time>
      </trkpt>
      <trkpt lat="48.29559" lon="7.32538">
        <ele>690</ele>
        <time>2020-10-21T00:06:33Z</time>
      </trkpt>
      <trkpt lat="48.2956" lon="7.32547">
        <ele>690</ele>
        <time>2020-10-21T00:06:41Z</time>
      </trkpt>
      <trkpt lat="48.29537" lon="7.32544">
        <ele>691</ele>
        <time>2020-10-21T00:07:12Z</time>
      </trkpt>
      <trkpt lat="48.29522" lon="7.32548">
        <ele>691</ele>
        <time>2020-10-21T00:07:32Z</time>
      </trkpt>
      <trkpt lat="48.29514" lon="7.3254">
        <ele>692</ele>
        <time>2020-10-21T00:07:45Z</time>
      </trkpt>
      <trkpt lat="48.29512" lon="7.32526">
        <ele>693</ele>
        <time>2020-10-21T00:07:58Z</time>
      </trkpt>
      <trkpt lat="48.29493" lon="7.32528">
        <ele>690</ele>
        <time>2020-10-21T00:08:23Z</time>
      </trkpt>
      <trkpt lat="48.29498" lon="7.32522">
        <ele>693</ele>
        <time>2020-10-21T00:08:32Z</time>
      </trkpt>
      <trkpt lat="48.29508" lon="7.32521">
        <ele>693</ele>
        <time>2020-10-21T00:08:45Z</time>
      </trkpt>
      <trkpt lat="48.29511" lon="7.32531">
        <ele>692</ele>
        <time>2020-10-21T00:08:55Z</time>
      </trkpt>
      <trkpt lat="48.29519" lon="7.32535">
        <ele>692</ele>
        <time>2020-10-21T00:09:06Z</time>
      </trkpt>
      <trkpt lat="48.2953" lon="7.32537">
        <ele>691</ele>
        <time>2020-10-21T00:09:21Z</time>
      </trkpt>
      <trkpt lat="48.29549" lon="7.32536">
        <ele>691</ele>
        <time>2020-10-21T00:09:46Z</time>
      </trkpt>
      <trkpt lat="48.29557" lon="7.32527">
        <ele>691</ele>
        <time>2020-10-21T00:09:59Z</time>
      </trkpt>
      <trkpt lat="48.29556" lon="7.32513">
        <ele>691</ele>
        <time>2020-10-21T00:10:12Z</time>
      </trkpt>
      <trkpt lat="48.29548" lon="7.32487">
        <ele>691</ele>
        <time>2020-10-21T00:10:37Z</time>
      </trkpt>
      <trkpt lat="48.29543" lon="7.32475">
        <ele>690</ele>
        <time>2020-10-21T00:10:50Z</time>
      </trkpt>
      <trkpt lat="48.29535" lon="7.32468">
        <ele>690</ele>
        <time>2020-10-21T00:11:02Z</time>
      </trkpt>
      <trkpt lat="48.29494" lon="7.32473">
        <ele>690</ele>
        <time>2020-10-21T00:11:57Z</time>
      </trkpt>
      <trkpt lat="48.29494" lon="7.32459">
        <ele>688</ele>
        <time>2020-10-21T00:12:10Z</time>
      </trkpt>
      <trkpt lat="48.29518" lon="7.32435">
        <ele>688</ele>
        <time>2020-10-21T00:12:48Z</time>
      </trkpt>
      <trkpt lat="48.29533" lon="7.32414">
        <ele>685</ele>
        <time>2020-10-21T00:13:15Z</time>
      </trkpt>
      <trkpt lat="48.2955" lon="7.32403">
        <ele>683</ele>
        <time>2020-10-21T00:13:40Z</time>
      </trkpt>
      <trkpt lat="48.29546" lon="7.32375">
        <ele>679</ele>
        <time>2020-10-21T00:14:06Z</time>
      </trkpt>
      <trkpt lat="48.2955" lon="7.32365">
        <ele>678</ele>
        <time>2020-10-21T00:14:16Z</time>
      </trkpt>
      <trkpt lat="48.2956" lon="7.32306">
        <ele>671</ele>
        <time>2020-10-21T00:15:10Z</time>
      </trkpt>
      <trkpt lat="48.29555" lon="7.3228">
        <ele>667</ele>
        <time>2020-10-21T00:15:34Z</time>
      </trkpt>
      <trkpt lat="48.29555" lon="7.32238">
        <ele>661</ele>
        <time>2020-10-21T00:16:11Z</time>
      </trkpt>
      <trkpt lat="48.29569" lon="7.32185">
        <ele>659</ele>
        <time>2020-10-21T00:17:02Z</time>
      </trkpt>
      <trkpt lat="48.29573" lon="7.32158">
        <ele>657</ele>
        <time>2020-10-21T00:17:26Z</time>
      </trkpt>
      <trkpt lat="48.29573" lon="7.32116">
        <ele>655</ele>
        <time>2020-10-21T00:18:04Z</time>
      </trkpt>
      <trkpt lat="48.29581" lon="7.32061">
        <ele>656</ele>
        <time>2020-10-21T00:18:54Z</time>
      </trkpt>
      <trkpt lat="48.29579" lon="7.32047">
        <ele>656</ele>
        <time>2020-10-21T00:19:06Z</time>
      </trkpt>
      <trkpt lat="48.29562" lon="7.32006">
        <ele>654</ele>
        <time>2020-10-21T00:19:49Z</time>
      </trkpt>
      <trkpt lat="48.29539" lon="7.31969">
        <ele>654</ele>
        <time>2020-10-21T00:20:34Z</time>
      </trkpt>
      <trkpt lat="48.29536" lon="7.31955">
        <ele>655</ele>
        <time>2020-10-21T00:20:47Z</time>
      </trkpt>
      <trkpt lat="48.29513" lon="7.31903">
        <ele>661</ele>
        <time>2020-10-21T00:21:43Z</time>
      </trkpt>
      <trkpt lat="48.29501" lon="7.31856">
        <ele>672</ele>
        <time>2020-10-21T00:22:27Z</time>
      </trkpt>
      <trkpt lat="48.29505" lon="7.31838">
        <ele>677</ele>
        <time>2020-10-21T00:22:44Z</time>
      </trkpt>
      <trkpt lat="48.29499" lon="7.31827">
        <ele>679</ele>
        <time>2020-10-21T00:22:57Z</time>
      </trkpt>
      <trkpt lat="48.29483" lon="7.31812">
        <ele>678</ele>
        <time>2020-10-21T00:23:22Z</time>
      </trkpt>
      <trkpt lat="48.2948" lon="7.31799">
        <ele>681</ele>
        <time>2020-10-21T00:23:34Z</time>
      </trkpt>
      <trkpt lat="48.2947" lon="7.31776">
        <ele>684</ele>
        <time>2020-10-21T00:23:59Z</time>
      </trkpt>
      <trkpt lat="48.29466" lon="7.31763">
        <ele>686</ele>
        <time>2020-10-21T00:24:11Z</time>
      </trkpt>
      <trkpt lat="48.29463" lon="7.31726">
        <ele>697</ele>
        <time>2020-10-21T00:24:45Z</time>
      </trkpt>
      <trkpt lat="48.29464" lon="7.31705">
        <ele>704</ele>
        <time>2020-10-21T00:25:03Z</time>
      </trkpt>
      <trkpt lat="48.29455" lon="7.31681">
        <ele>708</ele>
        <time>2020-10-21T00:25:28Z</time>
      </trkpt>
      <trkpt lat="48.29455" lon="7.31667">
        <ele>712</ele>
        <time>2020-10-21T00:25:40Z</time>
      </trkpt>
      <trkpt lat="48.29445" lon="7.31663">
        <ele>709</ele>
        <time>2020-10-21T00:25:54Z</time>
      </trkpt>
      <trkpt lat="48.29432" lon="7.3164">
        <ele>712</ele>
        <time>2020-10-21T00:26:21Z</time>
      </trkpt>
      <trkpt lat="48.29422" lon="7.31632">
        <ele>711</ele>
        <time>2020-10-21T00:26:36Z</time>
      </trkpt>
      <trkpt lat="48.29417" lon="7.31619">
        <ele>714</ele>
        <time>2020-10-21T00:26:49Z</time>
      </trkpt>
      <trkpt lat="48.2941" lon="7.3161">
        <ele>714</ele>
        <time>2020-10-21T00:27:01Z</time>
      </trkpt>
      <trkpt lat="48.29411" lon="7.31595">
        <ele>720</ele>
        <time>2020-10-21T00:27:15Z</time>
      </trkpt>
      <trkpt lat="48.29401" lon="7.31553">
        <ele>728</ele>
        <time>2020-10-21T00:27:54Z</time>
      </trkpt>
      <trkpt lat="48.29391" lon="7.31551">
        <ele>724</ele>
        <time>2020-10-21T00:28:08Z</time>
      </trkpt>
      <trkpt lat="48.29385" lon="7.3154">
        <ele>724</ele>
        <time>2020-10-21T00:28:21Z</time>
      </trkpt>
      <trkpt lat="48.29371" lon="7.31488">
        <ele>733</ele>
        <time>2020-10-21T00:29:10Z</time>
      </trkpt>
      <trkpt lat="48.29358" lon="7.31452">
        <ele>738</ele>
        <time>2020-10-21T00:29:47Z</time>
      </trkpt>
      <trkpt lat="48.29352" lon="7.31442">
        <ele>737</ele>
        <time>2020-10-21T00:29:59Z</time>
      </trkpt>
      <trkpt lat="48.29337" lon="7.31391">
        <ele>744</ele>
        <time>2020-10-21T00:30:48Z</time>
      </trkpt>
      <trkpt lat="48.2932" lon="7.31354">
        <ele>745</ele>
        <time>2020-10-21T00:31:28Z</time>
      </trkpt>
      <trkpt lat="48.29318" lon="7.31339">
        <ele>748</ele>
        <time>2020-10-21T00:31:42Z</time>
      </trkpt>
      <trkpt lat="48.29307" lon="7.31316">
        <ele>744</ele>
        <time>2020-10-21T00:32:07Z</time>
      </trkpt>
      <trkpt lat="48.29304" lon="7.31302">
        <ele>743</ele>
        <time>2020-10-21T00:32:20Z</time>
      </trkpt>
      <trkpt lat="48.29307" lon="7.31289">
        <ele>746</ele>
        <time>2020-10-21T00:32:32Z</time>
      </trkpt>
      <trkpt lat="48.29317" lon="7.31286">
        <ele>752</ele>
        <time>2020-10-21T00:32:46Z</time>
      </trkpt>
      <trkpt lat="48.29318" lon="7.3129">
        <ele>752</ele>
        <time>2020-10-21T00:32:50Z</time>
      </trkpt>
      <trkpt lat="48.29367" lon="7.31132">
        <ele>777</ele>
        <time>2020-10-21T00:35:24Z</time>
      </trkpt>
      <trkpt lat="48.2938" lon="7.31107">
        <ele>781</ele>
        <time>2020-10-21T00:35:52Z</time>
      </trkpt>
      <trkpt lat="48.29395" lon="7.31089">
        <ele>788</ele>
        <time>2020-10-21T00:36:18Z</time>
      </trkpt>
      <trkpt lat="48.29414" lon="7.31059">
        <ele>797</ele>
        <time>2020-10-21T00:36:55Z</time>
      </trkpt>
      <trkpt lat="48.29419" lon="7.31041">
        <ele>797</ele>
        <time>2020-10-21T00:37:12Z</time>
      </trkpt>
      <trkpt lat="48.29418" lon="7.31012">
        <ele>792</ele>
        <time>2020-10-21T00:37:38Z</time>
      </trkpt>
      <trkpt lat="48.29427" lon="7.30984">
        <ele>794</ele>
        <time>2020-10-21T00:38:06Z</time>
      </trkpt>
      <trkpt lat="48.29436" lon="7.30991">
        <ele>800</ele>
        <time>2020-10-21T00:38:19Z</time>
      </trkpt>
      <trkpt lat="48.29439" lon="7.31005">
        <ele>803</ele>
        <time>2020-10-21T00:38:32Z</time>
      </trkpt>
      <trkpt lat="48.29436" lon="7.30989">
        <ele>800</ele>
        <time>2020-10-21T00:38:47Z</time>
      </trkpt>
      <trkpt lat="48.29444" lon="7.30979">
        <ele>803</ele>
        <time>2020-10-21T00:39:01Z</time>
      </trkpt>
      <trkpt lat="48.29446" lon="7.30958">
        <ele>803</ele>
        <time>2020-10-21T00:39:20Z</time>
      </trkpt>
      <trkpt lat="48.29451" lon="7.30946">
        <ele>805</ele>
        <time>2020-10-21T00:39:32Z</time>
      </trkpt>
      <trkpt lat="48.29456" lon="7.30943">
        <ele>807</ele>
        <time>2020-10-21T00:39:39Z</time>
      </trkpt>
      <trkpt lat="48.29461" lon="7.3097">
        <ele>812</ele>
        <time>2020-10-21T00:40:04Z</time>
      </trkpt>
      <trkpt lat="48.29466" lon="7.30981">
        <ele>815</ele>
        <time>2020-10-21T00:40:16Z</time>
      </trkpt>
      <trkpt lat="48.2947" lon="7.30966">
        <ele>816</ele>
        <time>2020-10-21T00:40:30Z</time>
      </trkpt>
      <trkpt lat="48.29471" lon="7.30951">
        <ele>816</ele>
        <time>2020-10-21T00:40:44Z</time>
      </trkpt>
      <trkpt lat="48.29469" lon="7.30937">
        <ele>814</ele>
        <time>2020-10-21T00:40:57Z</time>
      </trkpt>
      <trkpt lat="48.29479" lon="7.30935">
        <ele>819</ele>
        <time>2020-10-21T00:41:10Z</time>
      </trkpt>
      <trkpt lat="48.29486" lon="7.30946">
        <ele>824</ele>
        <time>2020-10-21T00:41:23Z</time>
      </trkpt>
      <trkpt lat="48.29494" lon="7.30938">
        <ele>828</ele>
        <time>2020-10-21T00:41:36Z</time>
      </trkpt>
      <trkpt lat="48.29503" lon="7.30944">
        <ele>832</ele>
        <time>2020-10-21T00:41:49Z</time>
      </trkpt>
      <trkpt lat="48.29511" lon="7.30936">
        <ele>833</ele>
        <time>2020-10-21T00:42:02Z</time>
      </trkpt>
      <trkpt lat="48.29522" lon="7.30932">
        <ele>835</ele>
        <time>2020-10-21T00:42:17Z</time>
      </trkpt>
      <trkpt lat="48.29534" lon="7.30954">
        <ele>839</ele>
        <time>2020-10-21T00:42:43Z</time>
      </trkpt>
      <trkpt lat="48.29538" lon="7.30967">
        <ele>840</ele>
        <time>2020-10-21T00:42:55Z</time>
      </trkpt>
      <trkpt lat="48.29538" lon="7.30982">
        <ele>841</ele>
        <time>2020-10-21T00:43:09Z</time>
      </trkpt>
      <trkpt lat="48.29535" lon="7.30997">
        <ele>841</ele>
        <time>2020-10-21T00:43:23Z</time>
      </trkpt>
      <trkpt lat="48.2952" lon="7.31033">
        <ele>842</ele>
        <time>2020-10-21T00:44:00Z</time>
      </trkpt>
      <trkpt lat="48.29517" lon="7.31047">
        <ele>843</ele>
        <time>2020-10-21T00:44:13Z</time>
      </trkpt>
      <trkpt lat="48.29515" lon="7.31079">
        <ele>846</ele>
        <time>2020-10-21T00:44:42Z</time>
      </trkpt>
      <trkpt lat="48.29519" lon="7.31091">
        <ele>847</ele>
        <time>2020-10-21T00:44:54Z</time>
      </trkpt>
      <trkpt lat="48.29508" lon="7.3114">
        <ele>847</ele>
        <time>2020-10-21T00:45:40Z</time>
      </trkpt>
      <trkpt lat="48.29507" lon="7.31157">
        <ele>847</ele>
        <time>2020-10-21T00:45:55Z</time>
      </trkpt>
      <trkpt lat="48.29501" lon="7.31185">
        <ele>848</ele>
        <time>2020-10-21T00:46:21Z</time>
      </trkpt>
      <trkpt lat="48.29505" lon="7.31229">
        <ele>851</ele>
        <time>2020-10-21T00:47:00Z</time>
      </trkpt>
      <trkpt lat="48.29526" lon="7.3125">
        <ele>854</ele>
        <time>2020-10-21T00:47:34Z</time>
      </trkpt>
      <trkpt lat="48.29526" lon="7.31266">
        <ele>852</ele>
        <time>2020-10-21T00:47:48Z</time>
      </trkpt>
      <trkpt lat="48.29544" lon="7.31314">
        <ele>847</ele>
        <time>2020-10-21T00:48:37Z</time>
      </trkpt>
      <trkpt lat="48.29493" lon="7.3125">
        <ele>849</ele>
        <time>2020-10-21T00:50:06Z</time>
      </trkpt>
      <trkpt lat="48.29491" lon="7.31187">
        <ele>845</ele>
        <time>2020-10-21T00:51:02Z</time>
      </trkpt>
      <trkpt lat="48.295" lon="7.3113">
        <ele>846</ele>
        <time>2020-10-21T00:51:54Z</time>
      </trkpt>
      <trkpt lat="48.29498" lon="7.31101">
        <ele>844</ele>
        <time>2020-10-21T00:52:20Z</time>
      </trkpt>
      <trkpt lat="48.29504" lon="7.31059">
        <ele>843</ele>
        <time>2020-10-21T00:52:58Z</time>
      </trkpt>
      <trkpt lat="48.29513" lon="7.31034">
        <ele>841</ele>
        <time>2020-10-21T00:53:23Z</time>
      </trkpt>
      <trkpt lat="48.29517" lon="7.31004">
        <ele>838</ele>
        <time>2020-10-21T00:53:50Z</time>
      </trkpt>
      <trkpt lat="48.29512" lon="7.30992">
        <ele>837</ele>
        <time>2020-10-21T00:54:03Z</time>
      </trkpt>
      <trkpt lat="48.29514" lon="7.30948">
        <ele>835</ele>
        <time>2020-10-21T00:54:42Z</time>
      </trkpt>
      <trkpt lat="48.29508" lon="7.30925">
        <ele>832</ele>
        <time>2020-10-21T00:55:04Z</time>
      </trkpt>
      <trkpt lat="48.29511" lon="7.30903">
        <ele>832</ele>
        <time>2020-10-21T00:55:24Z</time>
      </trkpt>
      <trkpt lat="48.29498" lon="7.30888">
        <ele>829</ele>
        <time>2020-10-21T00:55:46Z</time>
      </trkpt>
      <trkpt lat="48.29492" lon="7.30873">
        <ele>826</ele>
        <time>2020-10-21T00:56:01Z</time>
      </trkpt>
      <trkpt lat="48.29491" lon="7.30822">
        <ele>826</ele>
        <time>2020-10-21T00:56:47Z</time>
      </trkpt>
      <trkpt lat="48.29495" lon="7.30837">
        <ele>827</ele>
        <time>2020-10-21T00:57:01Z</time>
      </trkpt>
      <trkpt lat="48.2953" lon="7.30871">
        <ele>836</ele>
        <time>2020-10-21T00:57:57Z</time>
      </trkpt>
      <trkpt lat="48.29536" lon="7.30856">
        <ele>837</ele>
        <time>2020-10-21T00:58:12Z</time>
      </trkpt>
      <trkpt lat="48.29526" lon="7.30849">
        <ele>835</ele>
        <time>2020-10-21T00:58:27Z</time>
      </trkpt>
      <trkpt lat="48.29522" lon="7.30837">
        <ele>834</ele>
        <time>2020-10-21T00:58:39Z</time>
      </trkpt>
      <trkpt lat="48.29515" lon="7.30829">
        <ele>833</ele>
        <time>2020-10-21T00:58:50Z</time>
      </trkpt>
      <trkpt lat="48.2951" lon="7.30816">
        <ele>832</ele>
        <time>2020-10-21T00:59:04Z</time>
      </trkpt>
      <trkpt lat="48.29507" lon="7.30788">
        <ele>833</ele>
        <time>2020-10-21T00:59:29Z</time>
      </trkpt>
      <trkpt lat="48.29499" lon="7.30762">
        <ele>832</ele>
        <time>2020-10-21T00:59:54Z</time>
      </trkpt>
      <trkpt lat="48.29485" lon="7.30736">
        <ele>828</ele>
        <time>2020-10-21T01:00:24Z</time>
      </trkpt>
      <trkpt lat="48.29473" lon="7.30696">
        <ele>825</ele>
        <time>2020-10-21T01:01:03Z</time>
      </trkpt>
      <trkpt lat="48.29466" lon="7.30689">
        <ele>824</ele>
        <time>2020-10-21T01:01:14Z</time>
      </trkpt>
      <trkpt lat="48.29456" lon="7.30663">
        <ele>823</ele>
        <time>2020-10-21T01:01:41Z</time>
      </trkpt>
      <trkpt lat="48.29437" lon="7.30631">
        <ele>821</ele>
        <time>2020-10-21T01:02:19Z</time>
      </trkpt>
      <trkpt lat="48.29432" lon="7.30618">
        <ele>821</ele>
        <time>2020-10-21T01:02:32Z</time>
      </trkpt>
      <trkpt lat="48.29422" lon="7.30611">
        <ele>820</ele>
        <time>2020-10-21T01:02:47Z</time>
      </trkpt>
      <trkpt lat="48.29417" lon="7.30599">
        <ele>821</ele>
        <time>2020-10-21T01:03:00Z</time>
      </trkpt>
      <trkpt lat="48.29389" lon="7.30555">
        <ele>816</ele>
        <time>2020-10-21T01:03:54Z</time>
      </trkpt>
      <trkpt lat="48.29387" lon="7.30541">
        <ele>816</ele>
        <time>2020-10-21T01:04:06Z</time>
      </trkpt>
      <trkpt lat="48.29391" lon="7.30529">
        <ele>817</ele>
        <time>2020-10-21T01:04:18Z</time>
      </trkpt>
      <trkpt lat="48.29388" lon="7.30515">
        <ele>817</ele>
        <time>2020-10-21T01:04:31Z</time>
      </trkpt>
      <trkpt lat="48.29381" lon="7.30493">
        <ele>815</ele>
        <time>2020-10-21T01:04:53Z</time>
      </trkpt>
      <trkpt lat="48.29368" lon="7.30467">
        <ele>809</ele>
        <time>2020-10-21T01:05:22Z</time>
      </trkpt>
      <trkpt lat="48.29562" lon="7.30468">
        <ele>828</ele>
        <time>2020-10-21T01:09:41Z</time>
      </trkpt>
      <trkpt lat="48.29573" lon="7.30462">
        <ele>828</ele>
        <time>2020-10-21T01:09:56Z</time>
      </trkpt>
      <trkpt lat="48.29609" lon="7.30458">
        <ele>830</ele>
        <time>2020-10-21T01:10:45Z</time>
      </trkpt>
      <trkpt lat="48.29631" lon="7.30453">
        <ele>831</ele>
        <time>2020-10-21T01:11:14Z</time>
      </trkpt>
      <trkpt lat="48.29639" lon="7.30444">
        <ele>831</ele>
        <time>2020-10-21T01:11:28Z</time>
      </trkpt>
      <trkpt lat="48.29667" lon="7.30443">
        <ele>832</ele>
        <time>2020-10-21T01:12:05Z</time>
      </trkpt>
      <trkpt lat="48.29686" lon="7.30435">
        <ele>833</ele>
        <time>2020-10-21T01:12:31Z</time>
      </trkpt>
      <trkpt lat="48.29696" lon="7.30435">
        <ele>833</ele>
        <time>2020-10-21T01:12:45Z</time>
      </trkpt>
      <trkpt lat="48.29711" lon="7.30419">
        <ele>833</ele>
        <time>2020-10-21T01:13:09Z</time>
      </trkpt>
      <trkpt lat="48.29725" lon="7.30399">
        <ele>833</ele>
        <time>2020-10-21T01:13:35Z</time>
      </trkpt>
      <trkpt lat="48.29733" lon="7.30406">
        <ele>834</ele>
        <time>2020-10-21T01:13:47Z</time>
      </trkpt>
      <trkpt lat="48.29745" lon="7.30383">
        <ele>834</ele>
        <time>2020-10-21T01:14:13Z</time>
      </trkpt>
      <trkpt lat="48.29748" lon="7.30371">
        <ele>834</ele>
        <time>2020-10-21T01:14:25Z</time>
      </trkpt>
      <trkpt lat="48.29769" lon="7.30343">
        <ele>834</ele>
        <time>2020-10-21T01:15:02Z</time>
      </trkpt>
      <trkpt lat="48.29779" lon="7.30318">
        <ele>834</ele>
        <time>2020-10-21T01:15:28Z</time>
      </trkpt>
      <trkpt lat="48.29786" lon="7.30309">
        <ele>834</ele>
        <time>2020-10-21T01:15:40Z</time>
      </trkpt>
      <trkpt lat="48.29795" lon="7.30277">
        <ele>834</ele>
        <time>2020-10-21T01:16:11Z</time>
      </trkpt>
      <trkpt lat="48.29803" lon="7.30264">
        <ele>835</ele>
        <time>2020-10-21T01:16:27Z</time>
      </trkpt>
      <trkpt lat="48.29811" lon="7.30233">
        <ele>835</ele>
        <time>2020-10-21T01:16:56Z</time>
      </trkpt>
      <trkpt lat="48.29821" lon="7.30216">
        <ele>836</ele>
        <time>2020-10-21T01:17:17Z</time>
      </trkpt>
      <trkpt lat="48.29838" lon="7.30204">
        <ele>837</ele>
        <time>2020-10-21T01:17:42Z</time>
      </trkpt>
      <trkpt lat="48.29842" lon="7.30158">
        <ele>837</ele>
        <time>2020-10-21T01:18:23Z</time>
      </trkpt>
      <trkpt lat="48.29847" lon="7.30145">
        <ele>836</ele>
        <time>2020-10-21T01:18:36Z</time>
      </trkpt>
      <trkpt lat="48.29855" lon="7.30138">
        <ele>836</ele>
        <time>2020-10-21T01:18:48Z</time>
      </trkpt>
      <trkpt lat="48.29853" lon="7.30124">
        <ele>836</ele>
        <time>2020-10-21T01:19:01Z</time>
      </trkpt>
      <trkpt lat="48.29855" lon="7.3009">
        <ele>834</ele>
        <time>2020-10-21T01:19:31Z</time>
      </trkpt>
      <trkpt lat="48.29858" lon="7.30076">
        <ele>834</ele>
        <time>2020-10-21T01:19:45Z</time>
      </trkpt>
      <trkpt lat="48.29857" lon="7.30047">
        <ele>834</ele>
        <time>2020-10-21T01:20:10Z</time>
      </trkpt>
      <trkpt lat="48.2986" lon="7.30027">
        <ele>834</ele>
        <time>2020-10-21T01:20:29Z</time>
      </trkpt>
      <trkpt lat="48.29844" lon="7.2998">
        <ele>833</ele>
        <time>2020-10-21T01:21:15Z</time>
      </trkpt>
      <trkpt lat="48.29819" lon="7.29954">
        <ele>829</ele>
        <time>2020-10-21T01:21:56Z</time>
      </trkpt>
      <trkpt lat="48.29806" lon="7.29932">
        <ele>827</ele>
        <time>2020-10-21T01:22:22Z</time>
      </trkpt>
      <trkpt lat="48.29798" lon="7.29923">
        <ele>825</ele>
        <time>2020-10-21T01:22:35Z</time>
      </trkpt>
      <trkpt lat="48.29768" lon="7.29861">
        <ele>822</ele>
        <time>2020-10-21T01:23:43Z</time>
      </trkpt>
      <trkpt lat="48.29764" lon="7.29768">
        <ele>822</ele>
        <time>2020-10-21T01:25:06Z</time>
      </trkpt>
      <trkpt lat="48.2977" lon="7.29695">
        <ele>818</ele>
        <time>2020-10-21T01:26:11Z</time>
      </trkpt>
      <trkpt lat="48.29872" lon="7.29678">
        <ele>809</ele>
        <time>2020-10-21T01:28:28Z</time>
      </trkpt>
      <trkpt lat="48.29894" lon="7.29654">
        <ele>803</ele>
        <time>2020-10-21T01:29:05Z</time>
      </trkpt>
      <trkpt lat="48.29927" lon="7.29629">
        <ele>798</ele>
        <time>2020-10-21T01:29:54Z</time>
      </trkpt>
      <trkpt lat="48.29944" lon="7.29619">
        <ele>797</ele>
        <time>2020-10-21T01:30:18Z</time>
      </trkpt>
      <trkpt lat="48.29951" lon="7.29608">
        <ele>796</ele>
        <time>2020-10-21T01:30:32Z</time>
      </trkpt>
      <trkpt lat="48.29959" lon="7.29602">
        <ele>796</ele>
        <time>2020-10-21T01:30:44Z</time>
      </trkpt>
      <trkpt lat="48.29995" lon="7.29587">
        <ele>796</ele>
        <time>2020-10-21T01:31:34Z</time>
      </trkpt>
      <trkpt lat="48.30024" lon="7.29595">
        <ele>795</ele>
        <time>2020-10-21T01:32:13Z</time>
      </trkpt>
      <trkpt lat="48.30043" lon="7.29589">
        <ele>792</ele>
        <time>2020-10-21T01:32:39Z</time>
      </trkpt>
      <trkpt lat="48.30069" lon="7.29571">
        <ele>786</ele>
        <time>2020-10-21T01:33:17Z</time>
      </trkpt>
      <trkpt lat="48.30081" lon="7.2957">
        <ele>784</ele>
        <time>2020-10-21T01:33:33Z</time>
      </trkpt>
      <trkpt lat="48.3009" lon="7.29566">
        <ele>783</ele>
        <time>2020-10-21T01:33:46Z</time>
      </trkpt>
      <trkpt lat="48.30099" lon="7.2956">
        <ele>780</ele>
        <time>2020-10-21T01:33:59Z</time>
      </trkpt>
      <trkpt lat="48.30112" lon="7.29539">
        <ele>775</ele>
        <time>2020-10-21T01:34:24Z</time>
      </trkpt>
      <trkpt lat="48.30136" lon="7.29514">
        <ele>767</ele>
        <time>2020-10-21T01:35:03Z</time>
      </trkpt>
      <trkpt lat="48.30162" lon="7.29495">
        <ele>761</ele>
        <time>2020-10-21T01:35:42Z</time>
      </trkpt>
      <trkpt lat="48.30179" lon="7.29479">
        <ele>759</ele>
        <time>2020-10-21T01:36:09Z</time>
      </trkpt>
      <trkpt lat="48.302" lon="7.29448">
        <ele>755</ele>
        <time>2020-10-21T01:36:48Z</time>
      </trkpt>
      <trkpt lat="48.30208" lon="7.29442">
        <ele>754</ele>
        <time>2020-10-21T01:37:00Z</time>
      </trkpt>
      <trkpt lat="48.30217" lon="7.2943">
        <ele>753</ele>
        <time>2020-10-21T01:37:16Z</time>
      </trkpt>
      <trkpt lat="48.30229" lon="7.29423">
        <ele>753</ele>
        <time>2020-10-21T01:37:33Z</time>
      </trkpt>
      <trkpt lat="48.30266" lon="7.29393">
        <ele>752</ele>
        <time>2020-10-21T01:38:29Z</time>
      </trkpt>
      <trkpt lat="48.30279" lon="7.29388">
        <ele>752</ele>
        <time>2020-10-21T01:38:47Z</time>
      </trkpt>
      <trkpt lat="48.30291" lon="7.29373">
        <ele>753</ele>
        <time>2020-10-21T01:39:08Z</time>
      </trkpt>
      <trkpt lat="48.30298" lon="7.29381">
        <ele>753</ele>
        <time>2020-10-21T01:39:20Z</time>
      </trkpt>
      <trkpt lat="48.30302" lon="7.2941">
        <ele>752</ele>
        <time>2020-10-21T01:39:46Z</time>
      </trkpt>
      <trkpt lat="48.303" lon="7.29413">
        <ele>752</ele>
        <time>2020-10-21T01:39:50Z</time>
      </trkpt>
      <trkpt lat="48.30307" lon="7.2939">
        <ele>753</ele>
        <time>2020-10-21T01:40:12Z</time>
      </trkpt>
      <trkpt lat="48.30318" lon="7.29374">
        <ele>754</ele>
        <time>2020-10-21T01:40:33Z</time>
      </trkpt>
      <trkpt lat="48.30321" lon="7.29359">
        <ele>756</ele>
        <time>2020-10-21T01:40:46Z</time>
      </trkpt>
      <trkpt lat="48.30332" lon="7.29345">
        <ele>758</ele>
        <time>2020-10-21T01:41:06Z</time>
      </trkpt>
      <trkpt lat="48.30335" lon="7.29332">
        <ele>760</ele>
        <time>2020-10-21T01:41:18Z</time>
      </trkpt>
      <trkpt lat="48.30333" lon="7.29323">
        <ele>761</ele>
        <time>2020-10-21T01:41:26Z</time>
      </trkpt>
      <trkpt lat="48.30344" lon="7.2929">
        <ele>763</ele>
        <time>2020-10-21T01:41:59Z</time>
      </trkpt>
      <trkpt lat="48.30349" lon="7.29282">
        <ele>763</ele>
        <time>2020-10-21T01:42:09Z</time>
      </trkpt>
      <trkpt lat="48.30382" lon="7.29164">
        <ele>760</ele>
        <time>2020-10-21T01:44:02Z</time>
      </trkpt>
      <trkpt lat="48.30382" lon="7.29117">
        <ele>756</ele>
        <time>2020-10-21T01:44:44Z</time>
      </trkpt>
      <trkpt lat="48.30389" lon="7.29044">
        <ele>747</ele>
        <time>2020-10-21T01:45:50Z</time>
      </trkpt>
      <trkpt lat="48.30383" lon="7.29015">
        <ele>742</ele>
        <time>2020-10-21T01:46:17Z</time>
      </trkpt>
      <trkpt lat="48.30386" lon="7.28994">
        <ele>739</ele>
        <time>2020-10-21T01:46:36Z</time>
      </trkpt>
      <trkpt lat="48.30396" lon="7.29002">
        <ele>741</ele>
        <time>2020-10-21T01:46:51Z</time>
      </trkpt>
      <trkpt lat="48.30401" lon="7.28984">
        <ele>737</ele>
        <time>2020-10-21T01:47:08Z</time>
      </trkpt>
      <trkpt lat="48.3041" lon="7.28982">
        <ele>737</ele>
        <time>2020-10-21T01:47:20Z</time>
      </trkpt>
      <trkpt lat="48.30418" lon="7.28984">
        <ele>738</ele>
        <time>2020-10-21T01:47:31Z</time>
      </trkpt>
      <trkpt lat="48.30434" lon="7.28969">
        <ele>732</ele>
        <time>2020-10-21T01:47:56Z</time>
      </trkpt>
      <trkpt lat="48.30444" lon="7.28968">
        <ele>730</ele>
        <time>2020-10-21T01:48:10Z</time>
      </trkpt>
      <trkpt lat="48.30447" lon="7.28972">
        <ele>730</ele>
        <time>2020-10-21T01:48:15Z</time>
      </trkpt>
      <trkpt lat="48.30456" lon="7.2893">
        <ele>723</ele>
        <time>2020-10-21T01:48:54Z</time>
      </trkpt>
      <trkpt lat="48.30447" lon="7.28877">
        <ele>715</ele>
        <time>2020-10-21T01:49:43Z</time>
      </trkpt>
      <trkpt lat="48.30447" lon="7.28848">
        <ele>709</ele>
        <time>2020-10-21T01:50:08Z</time>
      </trkpt>
      <trkpt lat="48.30431" lon="7.28781">
        <ele>697</ele>
        <time>2020-10-21T01:51:12Z</time>
      </trkpt>
      <trkpt lat="48.30418" lon="7.2876">
        <ele>693</ele>
        <time>2020-10-21T01:51:37Z</time>
      </trkpt>
      <trkpt lat="48.30378" lon="7.28716">
        <ele>684</ele>
        <time>2020-10-21T01:52:43Z</time>
      </trkpt>
      <trkpt lat="48.30367" lon="7.28693">
        <ele>680</ele>
        <time>2020-10-21T01:53:08Z</time>
      </trkpt>
      <trkpt lat="48.30359" lon="7.28684">
        <ele>678</ele>
        <time>2020-10-21T01:53:22Z</time>
      </trkpt>
      <trkpt lat="48.30369" lon="7.2866">
        <ele>674</ele>
        <time>2020-10-21T01:53:47Z</time>
      </trkpt>
      <trkpt lat="48.30367" lon="7.28641">
        <ele>671</ele>
        <time>2020-10-21T01:54:04Z</time>
      </trkpt>
      <trkpt lat="48.30348" lon="7.28629">
        <ele>668</ele>
        <time>2020-10-21T01:54:31Z</time>
      </trkpt>
      <trkpt lat="48.30342" lon="7.28618">
        <ele>666</ele>
        <time>2020-10-21T01:54:44Z</time>
      </trkpt>
      <trkpt lat="48.30334" lon="7.28612">
        <ele>665</ele>
        <time>2020-10-21T01:54:56Z</time>
      </trkpt>
      <trkpt lat="48.30333" lon="7.28608">
        <ele>664</ele>
        <time>2020-10-21T01:55:00Z</time>
      </trkpt>
      <trkpt lat="48.30317" lon="7.286">
        <ele>658</ele>
        <time>2020-10-21T01:55:22Z</time>
      </trkpt>
      <trkpt lat="48.30307" lon="7.28606">
        <ele>656</ele>
        <time>2020-10-21T01:55:37Z</time>
      </trkpt>
      <trkpt lat="48.303" lon="7.28614">
        <ele>656</ele>
        <time>2020-10-21T01:55:48Z</time>
      </trkpt>
      <trkpt lat="48.3029" lon="7.28618">
        <ele>654</ele>
        <time>2020-10-21T01:56:02Z</time>
      </trkpt>
      <trkpt lat="48.30272" lon="7.28644">
        <ele>653</ele>
        <time>2020-10-21T01:56:35Z</time>
      </trkpt>
      <trkpt lat="48.30255" lon="7.28656">
        <ele>651</ele>
        <time>2020-10-21T01:57:01Z</time>
      </trkpt>
      <trkpt lat="48.30235" lon="7.28681">
        <ele>653</ele>
        <time>2020-10-21T01:57:35Z</time>
      </trkpt>
      <trkpt lat="48.30222" lon="7.28703">
        <ele>655</ele>
        <time>2020-10-21T01:58:01Z</time>
      </trkpt>
      <trkpt lat="48.30203" lon="7.2875">
        <ele>657</ele>
        <time>2020-10-21T01:58:50Z</time>
      </trkpt>
      <trkpt lat="48.30165" lon="7.28813">
        <ele>657</ele>
        <time>2020-10-21T02:00:06Z</time>
      </trkpt>
      <trkpt lat="48.30157" lon="7.28821">
        <ele>660</ele>
        <time>2020-10-21T02:00:19Z</time>
      </trkpt>
      <trkpt lat="48.30148" lon="7.28825">
        <ele>662</ele>
        <time>2020-10-21T02:00:31Z</time>
      </trkpt>
      <trkpt lat="48.30139" lon="7.28827">
        <ele>663</ele>
        <time>2020-10-21T02:00:43Z</time>
      </trkpt>
      <trkpt lat="48.30123" lon="7.28825">
        <ele>666</ele>
        <time>2020-10-21T02:01:05Z</time>
      </trkpt>
      <trkpt lat="48.30145" lon="7.28582">
        <ele>652</ele>
        <time>2020-10-21T02:04:42Z</time>
      </trkpt>
      <trkpt lat="48.30115" lon="7.28464">
        <ele>658</ele>
        <time>2020-10-21T02:06:34Z</time>
      </trkpt>
      <trkpt lat="48.30108" lon="7.28454">
        <ele>660</ele>
        <time>2020-10-21T02:06:47Z</time>
      </trkpt>
      <trkpt lat="48.30106" lon="7.2844">
        <ele>659</ele>
        <time>2020-10-21T02:07:00Z</time>
      </trkpt>
      <trkpt lat="48.30098" lon="7.28415">
        <ele>659</ele>
        <time>2020-10-21T02:07:25Z</time>
      </trkpt>
      <trkpt lat="48.30072" lon="7.28374">
        <ele>663</ele>
        <time>2020-10-21T02:08:15Z</time>
      </trkpt>
      <trkpt lat="48.30053" lon="7.28359">
        <ele>664</ele>
        <time>2020-10-21T02:08:44Z</time>
      </trkpt>
      <trkpt lat="48.30043" lon="7.28348">
        <ele>665</ele>
        <time>2020-10-21T02:09:00Z</time>
      </trkpt>
      <trkpt lat="48.30033" lon="7.28343">
        <ele>666</ele>
        <time>2020-10-21T02:09:14Z</time>
      </trkpt>
      <trkpt lat="48.30005" lon="7.28343">
        <ele>670</ele>
        <time>2020-10-21T02:09:52Z</time>
      </trkpt>
      <trkpt lat="48.29983" lon="7.2833">
        <ele>672</ele>
        <time>2020-10-21T02:10:23Z</time>
      </trkpt>
      <trkpt lat="48.29955" lon="7.2832">
        <ele>676</ele>
        <time>2020-10-21T02:11:02Z</time>
      </trkpt>
      <trkpt lat="48.29947" lon="7.28325">
        <ele>676</ele>
        <time>2020-10-21T02:11:13Z</time>
      </trkpt>
      <trkpt lat="48.29929" lon="7.28328">
        <ele>678</ele>
        <time>2020-10-21T02:11:37Z</time>
      </trkpt>
      <trkpt lat="48.2992" lon="7.28324">
        <ele>679</ele>
        <time>2020-10-21T02:11:50Z</time>
      </trkpt>
      <trkpt lat="48.29911" lon="7.28325">
        <ele>680</ele>
        <time>2020-10-21T02:12:02Z</time>
      </trkpt>
      <trkpt lat="48.29893" lon="7.28333">
        <ele>682</ele>
        <time>2020-10-21T02:12:27Z</time>
      </trkpt>
      <trkpt lat="48.29864" lon="7.28327">
        <ele>687</ele>
        <time>2020-10-21T02:13:06Z</time>
      </trkpt>
      <trkpt lat="48.29836" lon="7.28326">
        <ele>691</ele>
        <time>2020-10-21T02:13:43Z</time>
      </trkpt>
      <trkpt lat="48.29828" lon="7.2832">
        <ele>692</ele>
        <time>2020-10-21T02:13:55Z</time>
      </trkpt>
      <trkpt lat="48.29791" lon="7.28311">
        <ele>698</ele>
        <time>2020-10-21T02:14:45Z</time>
      </trkpt>
      <trkpt lat="48.29774" lon="7.28297">
        <ele>700</ele>
        <time>2020-10-21T02:15:11Z</time>
      </trkpt>
      <trkpt lat="48.29765" lon="7.28295">
        <ele>702</ele>
        <time>2020-10-21T02:15:23Z</time>
      </trkpt>
      <trkpt lat="48.29746" lon="7.28284">
        <ele>704</ele>
        <time>2020-10-21T02:15:50Z</time>
      </trkpt>
      <trkpt lat="48.29719" lon="7.28273">
        <ele>707</ele>
        <time>2020-10-21T02:16:28Z</time>
      </trkpt>
      <trkpt lat="48.2971" lon="7.28272">
        <ele>708</ele>
        <time>2020-10-21T02:16:40Z</time>
      </trkpt>
      <trkpt lat="48.29703" lon="7.28276">
        <ele>709</ele>
        <time>2020-10-21T02:16:50Z</time>
      </trkpt>
      <trkpt lat="48.29651" lon="7.28233">
        <ele>711</ele>
        <time>2020-10-21T02:18:09Z</time>
      </trkpt>
      <trkpt lat="48.2964" lon="7.28242">
        <ele>712</ele>
        <time>2020-10-21T02:18:26Z</time>
      </trkpt>
      <trkpt lat="48.29616" lon="7.28253">
        <ele>713</ele>
        <time>2020-10-21T02:18:59Z</time>
      </trkpt>
      <trkpt lat="48.29585" lon="7.28256">
        <ele>714</ele>
        <time>2020-10-21T02:19:41Z</time>
      </trkpt>
      <trkpt lat="48.29567" lon="7.28261">
        <ele>713</ele>
        <time>2020-10-21T02:20:05Z</time>
      </trkpt>
      <trkpt lat="48.29548" lon="7.28262">
        <ele>711</ele>
        <time>2020-10-21T02:20:30Z</time>
      </trkpt>
      <trkpt lat="48.2953" lon="7.28267">
        <ele>709</ele>
        <time>2020-10-21T02:20:55Z</time>
      </trkpt>
      <trkpt lat="48.2952" lon="7.28273">
        <ele>710</ele>
        <time>2020-10-21T02:21:09Z</time>
      </trkpt>
      <trkpt lat="48.29506" lon="7.28291">
        <ele>712</ele>
        <time>2020-10-21T02:21:34Z</time>
      </trkpt>
      <trkpt lat="48.29485" lon="7.28307">
        <ele>711</ele>
        <time>2020-10-21T02:22:05Z</time>
      </trkpt>
      <trkpt lat="48.29469" lon="7.28329">
        <ele>711</ele>
        <time>2020-10-21T02:22:34Z</time>
      </trkpt>
      <trkpt lat="48.2945" lon="7.28339">
        <ele>708</ele>
        <time>2020-10-21T02:23:01Z</time>
      </trkpt>
      <trkpt lat="48.29409" lon="7.28375">
        <ele>707</ele>
        <time>2020-10-21T02:24:04Z</time>
      </trkpt>
      <trkpt lat="48.2939" lon="7.28404">
        <ele>708</ele>
        <time>2020-10-21T02:24:41Z</time>
      </trkpt>
      <trkpt lat="48.29347" lon="7.28436">
        <ele>703</ele>
        <time>2020-10-21T02:25:45Z</time>
      </trkpt>
      <trkpt lat="48.2934" lon="7.28446">
        <ele>704</ele>
        <time>2020-10-21T02:25:57Z</time>
      </trkpt>
      <trkpt lat="48.29331" lon="7.2845">
        <ele>702</ele>
        <time>2020-10-21T02:26:10Z</time>
      </trkpt>
      <trkpt lat="48.29328" lon="7.28458">
        <ele>704</ele>
        <time>2020-10-21T02:26:18Z</time>
      </trkpt>
      <trkpt lat="48.29247" lon="7.28522">
        <ele>713</ele>
        <time>2020-10-21T02:28:20Z</time>
      </trkpt>
      <trkpt lat="48.29238" lon="7.28521">
        <ele>713</ele>
        <time>2020-10-21T02:28:32Z</time>
      </trkpt>
      <trkpt lat="48.29217" lon="7.28544">
        <ele>720</ele>
        <time>2020-10-21T02:29:07Z</time>
      </trkpt>
      <trkpt lat="48.29206" lon="7.28541">
        <ele>719</ele>
        <time>2020-10-21T02:29:22Z</time>
      </trkpt>
      <trkpt lat="48.29197" lon="7.28547">
        <ele>721</ele>
        <time>2020-10-21T02:29:35Z</time>
      </trkpt>
      <trkpt lat="48.29188" lon="7.28547">
        <ele>720</ele>
        <time>2020-10-21T02:29:47Z</time>
      </trkpt>
      <trkpt lat="48.29167" lon="7.28555">
        <ele>722</ele>
        <time>2020-10-21T02:30:16Z</time>
      </trkpt>
      <trkpt lat="48.29148" lon="7.28546">
        <ele>715</ele>
        <time>2020-10-21T02:30:43Z</time>
      </trkpt>
      <trkpt lat="48.29129" lon="7.28552">
        <ele>712</ele>
        <time>2020-10-21T02:31:08Z</time>
      </trkpt>
      <trkpt lat="48.29114" lon="7.28568">
        <ele>711</ele>
        <time>2020-10-21T02:31:33Z</time>
      </trkpt>
      <trkpt lat="48.29113" lon="7.28598">
        <ele>718</ele>
        <time>2020-10-21T02:32:00Z</time>
      </trkpt>
      <trkpt lat="48.29104" lon="7.28653">
        <ele>725</ele>
        <time>2020-10-21T02:32:50Z</time>
      </trkpt>
      <trkpt lat="48.29107" lon="7.28681">
        <ele>731</ele>
        <time>2020-10-21T02:33:15Z</time>
      </trkpt>
      <trkpt lat="48.29106" lon="7.28696">
        <ele>734</ele>
        <time>2020-10-21T02:33:29Z</time>
      </trkpt>
      <trkpt lat="48.29096" lon="7.28721">
        <ele>734</ele>
        <time>2020-10-21T02:33:54Z</time>
      </trkpt>
      <trkpt lat="48.29088" lon="7.28728">
        <ele>731</ele>
        <time>2020-10-21T02:34:07Z</time>
      </trkpt>
      <trkpt lat="48.29065" lon="7.28774">
        <ele>728</ele>
        <time>2020-10-21T02:34:58Z</time>
      </trkpt>
      <trkpt lat="48.29052" lon="7.28792">
        <ele>726</ele>
        <time>2020-10-21T02:35:21Z</time>
      </trkpt>
      <trkpt lat="48.29041" lon="7.28814">
        <ele>727</ele>
        <time>2020-10-21T02:35:46Z</time>
      </trkpt>
      <trkpt lat="48.29013" lon="7.28856">
        <ele>726</ele>
        <time>2020-10-21T02:36:39Z</time>
      </trkpt>
      <trkpt lat="48.28995" lon="7.28873">
        <ele>723</ele>
        <time>2020-10-21T02:37:07Z</time>
      </trkpt>
      <trkpt lat="48.28988" lon="7.28883">
        <ele>723</ele>
        <time>2020-10-21T02:37:20Z</time>
      </trkpt>
      <trkpt lat="48.28978" lon="7.28908">
        <ele>727</ele>
        <time>2020-10-21T02:37:46Z</time>
      </trkpt>
      <trkpt lat="48.28966" lon="7.28929">
        <ele>729</ele>
        <time>2020-10-21T02:38:10Z</time>
      </trkpt>
      <trkpt lat="48.28956" lon="7.28985">
        <ele>740</ele>
        <time>2020-10-21T02:39:02Z</time>
      </trkpt>
      <trkpt lat="48.28949" lon="7.29076">
        <ele>744</ele>
        <time>2020-10-21T02:40:23Z</time>
      </trkpt>
      <trkpt lat="48.28944" lon="7.29105">
        <ele>737</ele>
        <time>2020-10-21T02:40:50Z</time>
      </trkpt>
      <trkpt lat="48.28951" lon="7.29131">
        <ele>730</ele>
        <time>2020-10-21T02:41:15Z</time>
      </trkpt>
      <trkpt lat="48.28958" lon="7.2914">
        <ele>729</ele>
        <time>2020-10-21T02:41:27Z</time>
      </trkpt>
      <trkpt lat="48.28966" lon="7.29144">
        <ele>729</ele>
        <time>2020-10-21T02:41:38Z</time>
      </trkpt>
      <trkpt lat="48.28991" lon="7.29166">
        <ele>726</ele>
        <time>2020-10-21T02:42:17Z</time>
      </trkpt>
      <trkpt lat="48.2901" lon="7.29165">
        <ele>728</ele>
        <time>2020-10-21T02:42:42Z</time>
      </trkpt>
      <trkpt lat="48.29019" lon="7.29169">
        <ele>727</ele>
        <time>2020-10-21T02:42:55Z</time>
      </trkpt>
      <trkpt lat="48.29047" lon="7.2916">
        <ele>733</ele>
        <time>2020-10-21T02:43:33Z</time>
      </trkpt>
      <trkpt lat="48.29066" lon="7.29163">
        <ele>732</ele>
        <time>2020-10-21T02:43:59Z</time>
      </trkpt>
      <trkpt lat="48.29075" lon="7.29159">
        <ele>735</ele>
        <time>2020-10-21T02:44:11Z</time>
      </trkpt>
      <trkpt lat="48.29095" lon="7.29158">
        <ele>737</ele>
        <time>2020-10-21T02:44:38Z</time>
      </trkpt>
      <trkpt lat="48.29104" lon="7.29159">
        <ele>738</ele>
        <time>2020-10-21T02:44:50Z</time>
      </trkpt>
      <trkpt lat="48.29132" lon="7.2917">
        <ele>734</ele>
        <time>2020-10-21T02:45:28Z</time>
      </trkpt>
      <trkpt lat="48.29141" lon="7.29163">
        <ele>739</ele>
        <time>2020-10-21T02:45:42Z</time>
      </trkpt>
      <trkpt lat="48.2915" lon="7.29167">
        <ele>738</ele>
        <time>2020-10-21T02:45:54Z</time>
      </trkpt>
      <trkpt lat="48.29164" lon="7.29185">
        <ele>730</ele>
        <time>2020-10-21T02:46:19Z</time>
      </trkpt>
      <trkpt lat="48.29173" lon="7.29191">
        <ele>729</ele>
        <time>2020-10-21T02:46:32Z</time>
      </trkpt>
      <trkpt lat="48.29183" lon="7.2919">
        <ele>731</ele>
        <time>2020-10-21T02:46:46Z</time>
      </trkpt>
      <trkpt lat="48.29193" lon="7.29193">
        <ele>732</ele>
        <time>2020-10-21T02:46:59Z</time>
      </trkpt>
      <trkpt lat="48.292" lon="7.29202">
        <ele>729</ele>
        <time>2020-10-21T02:47:11Z</time>
      </trkpt>
      <trkpt lat="48.29209" lon="7.29205">
        <ele>729</ele>
        <time>2020-10-21T02:47:24Z</time>
      </trkpt>
      <trkpt lat="48.29218" lon="7.29204">
        <ele>732</ele>
        <time>2020-10-21T02:47:36Z</time>
      </trkpt>
      <trkpt lat="48.29227" lon="7.29209">
        <ele>731</ele>
        <time>2020-10-21T02:47:49Z</time>
      </trkpt>
      <trkpt lat="48.29236" lon="7.29208">
        <ele>734</ele>
        <time>2020-10-21T02:48:01Z</time>
      </trkpt>
      <trkpt lat="48.29253" lon="7.29222">
        <ele>731</ele>
        <time>2020-10-21T02:48:27Z</time>
      </trkpt>
      <trkpt lat="48.29263" lon="7.29224">
        <ele>733</ele>
        <time>2020-10-21T02:48:40Z</time>
      </trkpt>
      <trkpt lat="48.29286" lon="7.29246">
        <ele>732</ele>
        <time>2020-10-21T02:49:16Z</time>
      </trkpt>
      <trkpt lat="48.29295" lon="7.29249">
        <ele>734</ele>
        <time>2020-10-21T02:49:29Z</time>
      </trkpt>
      <trkpt lat="48.29303" lon="7.29258">
        <ele>733</ele>
        <time>2020-10-21T02:49:42Z</time>
      </trkpt>
      <trkpt lat="48.29317" lon="7.29295">
        <ele>726</ele>
        <time>2020-10-21T02:50:20Z</time>
      </trkpt>
      <trkpt lat="48.29339" lon="7.29329">
        <ele>725</ele>
        <time>2020-10-21T02:51:02Z</time>
      </trkpt>
      <trkpt lat="48.29352" lon="7.29367">
        <ele>718</ele>
        <time>2020-10-21T02:51:40Z</time>
      </trkpt>
      <trkpt lat="48.2935" lon="7.29381">
        <ele>712</ele>
        <time>2020-10-21T02:51:53Z</time>
      </trkpt>
      <trkpt lat="48.29345" lon="7.29377">
        <ele>710</ele>
        <time>2020-10-21T02:52:00Z</time>
      </trkpt>
      <trkpt lat="48.29358" lon="7.29387">
        <ele>714</ele>
        <time>2020-10-21T02:52:20Z</time>
      </trkpt>
      <trkpt lat="48.29361" lon="7.29416">
        <ele>705</ele>
        <time>2020-10-21T02:52:46Z</time>
      </trkpt>
      <trkpt lat="48.29387" lon="7.29439">
        <ele>710</ele>
        <time>2020-10-21T02:53:26Z</time>
      </trkpt>
      <trkpt lat="48.29391" lon="7.29451">
        <ele>707</ele>
        <time>2020-10-21T02:53:38Z</time>
      </trkpt>
      <trkpt lat="48.29399" lon="7.29459">
        <ele>708</ele>
        <time>2020-10-21T02:53:51Z</time>
      </trkpt>
      <trkpt lat="48.29404" lon="7.29472">
        <ele>705</ele>
        <time>2020-10-21T02:54:04Z</time>
      </trkpt>
      <trkpt lat="48.29422" lon="7.29485">
        <ele>710</ele>
        <time>2020-10-21T02:54:31Z</time>
      </trkpt>
      <trkpt lat="48.29427" lon="7.29506">
        <ele>704</ele>
        <time>2020-10-21T02:54:50Z</time>
      </trkpt>
      <trkpt lat="48.29434" lon="7.29508">
        <ele>709</ele>
        <time>2020-10-21T02:55:00Z</time>
      </trkpt>
      <trkpt lat="48.29446" lon="7.2953">
        <ele>710</ele>
        <time>2020-10-21T02:55:25Z</time>
      </trkpt>
      <trkpt lat="48.29445" lon="7.29543">
        <ele>705</ele>
        <time>2020-10-21T02:55:37Z</time>
      </trkpt>
      <trkpt lat="48.29454" lon="7.2957">
        <ele>702</ele>
        <time>2020-10-21T02:56:04Z</time>
      </trkpt>
      <trkpt lat="48.29477" lon="7.29616">
        <ele>706</ele>
        <time>2020-10-21T02:56:55Z</time>
      </trkpt>
      <trkpt lat="48.29501" lon="7.29677">
        <ele>707</ele>
        <time>2020-10-21T02:57:58Z</time>
      </trkpt>
      <trkpt lat="48.29519" lon="7.2971">
        <ele>710</ele>
        <time>2020-10-21T02:58:36Z</time>
      </trkpt>
      <trkpt lat="48.29525" lon="7.29754">
        <ele>703</ele>
        <time>2020-10-21T02:59:15Z</time>
      </trkpt>
      <trkpt lat="48.2953" lon="7.29766">
        <ele>704</ele>
        <time>2020-10-21T02:59:28Z</time>
      </trkpt>
      <trkpt lat="48.29532" lon="7.29794">
        <ele>700</ele>
        <time>2020-10-21T02:59:53Z</time>
      </trkpt>
      <trkpt lat="48.29535" lon="7.29808">
        <ele>699</ele>
        <time>2020-10-21T03:00:06Z</time>
      </trkpt>
      <trkpt lat="48.29542" lon="7.29818">
        <ele>702</ele>
        <time>2020-10-21T03:00:19Z</time>
      </trkpt>
      <trkpt lat="48.2954" lon="7.29833">
        <ele>697</ele>
        <time>2020-10-21T03:00:33Z</time>
      </trkpt>
      <trkpt lat="48.29531" lon="7.29858">
        <ele>689</ele>
        <time>2020-10-21T03:00:58Z</time>
      </trkpt>
      <trkpt lat="48.29526" lon="7.29992">
        <ele>691</ele>
        <time>2020-10-21T03:02:57Z</time>
      </trkpt>
      <trkpt lat="48.29511" lon="7.30009">
        <ele>688</ele>
        <time>2020-10-21T03:03:22Z</time>
      </trkpt>
      <trkpt lat="48.29485" lon="7.30028">
        <ele>687</ele>
        <time>2020-10-21T03:04:01Z</time>
      </trkpt>
      <trkpt lat="48.29457" lon="7.30043">
        <ele>688</ele>
        <time>2020-10-21T03:04:40Z</time>
      </trkpt>
      <trkpt lat="48.29446" lon="7.30045">
        <ele>687</ele>
        <time>2020-10-21T03:04:55Z</time>
      </trkpt>
      <trkpt lat="48.29455" lon="7.30041">
        <ele>687</ele>
        <time>2020-10-21T03:05:08Z</time>
      </trkpt>
      <trkpt lat="48.29465" lon="7.30043">
        <ele>689</ele>
        <time>2020-10-21T03:05:21Z</time>
      </trkpt>
      <trkpt lat="48.29494" lon="7.30033">
        <ele>689</ele>
        <time>2020-10-21T03:06:01Z</time>
      </trkpt>
      <trkpt lat="48.2951" lon="7.30015">
        <ele>689</ele>
        <time>2020-10-21T03:06:27Z</time>
      </trkpt>
      <trkpt lat="48.29515" lon="7.30003">
        <ele>688</ele>
        <time>2020-10-21T03:06:40Z</time>
      </trkpt>
      <trkpt lat="48.29523" lon="7.29994">
        <ele>690</ele>
        <time>2020-10-21T03:06:53Z</time>
      </trkpt>
      <trkpt lat="48.29528" lon="7.29967">
        <ele>689</ele>
        <time>2020-10-21T03:07:18Z</time>
      </trkpt>
      <trkpt lat="48.29526" lon="7.29965">
        <ele>688</ele>
        <time>2020-10-21T03:07:21Z</time>
      </trkpt>
      <trkpt lat="48.29503" lon="7.30007">
        <ele>684</ele>
        <time>2020-10-21T03:08:10Z</time>
      </trkpt>
      <trkpt lat="48.29495" lon="7.30024">
        <ele>687</ele>
        <time>2020-10-21T03:08:28Z</time>
      </trkpt>
      <trkpt lat="48.29492" lon="7.30037">
        <ele>690</ele>
        <time>2020-10-21T03:08:40Z</time>
      </trkpt>
      <trkpt lat="48.29474" lon="7.30047">
        <ele>691</ele>
        <time>2020-10-21T03:09:06Z</time>
      </trkpt>
      <trkpt lat="48.29445" lon="7.30051">
        <ele>689</ele>
        <time>2020-10-21T03:09:45Z</time>
      </trkpt>
      <trkpt lat="48.29427" lon="7.30049">
        <ele>687</ele>
        <time>2020-10-21T03:10:09Z</time>
      </trkpt>
      <trkpt lat="48.29406" lon="7.30051">
        <ele>685</ele>
        <time>2020-10-21T03:10:37Z</time>
      </trkpt>
      <trkpt lat="48.29376" lon="7.30059">
        <ele>683</ele>
        <time>2020-10-21T03:11:18Z</time>
      </trkpt>
      <trkpt lat="48.29374" lon="7.30051">
        <ele>680</ele>
        <time>2020-10-21T03:11:25Z</time>
      </trkpt>
      <trkpt lat="48.29342" lon="7.30047">
        <ele>674</ele>
        <time>2020-10-21T03:12:08Z</time>
      </trkpt>
      <trkpt lat="48.29319" lon="7.30063">
        <ele>674</ele>
        <time>2020-10-21T03:12:42Z</time>
      </trkpt>
      <trkpt lat="48.29312" lon="7.30072">
        <ele>674</ele>
        <time>2020-10-21T03:12:54Z</time>
      </trkpt>
      <trkpt lat="48.29302" lon="7.30072">
        <ele>671</ele>
        <time>2020-10-21T03:13:08Z</time>
      </trkpt>
      <trkpt lat="48.29293" lon="7.30081">
        <ele>671</ele>
        <time>2020-10-21T03:13:22Z</time>
      </trkpt>
      <trkpt lat="48.29284" lon="7.30085">
        <ele>670</ele>
        <time>2020-10-21T03:13:34Z</time>
      </trkpt>
      <trkpt lat="48.2925" lon="7.30115">
        <ele>668</ele>
        <time>2020-10-21T03:14:27Z</time>
      </trkpt>
      <trkpt lat="48.29241" lon="7.30112">
        <ele>664</ele>
        <time>2020-10-21T03:14:39Z</time>
      </trkpt>
      <trkpt lat="48.29235" lon="7.30101">
        <ele>658</ele>
        <time>2020-10-21T03:14:52Z</time>
      </trkpt>
      <trkpt lat="48.29225" lon="7.301">
        <ele>653</ele>
        <time>2020-10-21T03:15:05Z</time>
      </trkpt>
      <trkpt lat="48.29194" lon="7.30117">
        <ele>645</ele>
        <time>2020-10-21T03:15:49Z</time>
      </trkpt>
      <trkpt lat="48.29179" lon="7.30134">
        <ele>644</ele>
        <time>2020-10-21T03:16:15Z</time>
      </trkpt>
      <trkpt lat="48.29161" lon="7.30146">
        <ele>639</ele>
        <time>2020-10-21T03:16:41Z</time>
      </trkpt>
      <trkpt lat="48.29156" lon="7.3016">
        <ele>640</ele>
        <time>2020-10-21T03:16:55Z</time>
      </trkpt>
      <trkpt lat="48.29127" lon="7.3017">
        <ele>629</ele>
        <time>2020-10-21T03:17:35Z</time>
      </trkpt>
      <trkpt lat="48.2912" lon="7.30178">
        <ele>628</ele>
        <time>2020-10-21T03:17:46Z</time>
      </trkpt>
      <trkpt lat="48.29092" lon="7.30189">
        <ele>617</ele>
        <time>2020-10-21T03:18:25Z</time>
      </trkpt>
      <trkpt lat="48.29075" lon="7.30205">
        <ele>612</ele>
        <time>2020-10-21T03:18:52Z</time>
      </trkpt>
      <trkpt lat="48.29075" lon="7.3022">
        <ele>616</ele>
        <time>2020-10-21T03:19:05Z</time>
      </trkpt>
      <trkpt lat="48.29069" lon="7.3023">
        <ele>615</ele>
        <time>2020-10-21T03:19:17Z</time>
      </trkpt>
      <trkpt lat="48.29061" lon="7.30236">
        <ele>612</ele>
        <time>2020-10-21T03:19:29Z</time>
      </trkpt>
      <trkpt lat="48.29041" lon="7.30274">
        <ele>609</ele>
        <time>2020-10-21T03:20:12Z</time>
      </trkpt>
      <trkpt lat="48.29039" lon="7.30288">
        <ele>610</ele>
        <time>2020-10-21T03:20:25Z</time>
      </trkpt>
      <trkpt lat="48.29027" lon="7.30327">
        <ele>609</ele>
        <time>2020-10-21T03:21:03Z</time>
      </trkpt>
      <trkpt lat="48.29024" lon="7.30328">
        <ele>608</ele>
        <time>2020-10-21T03:21:07Z</time>
      </trkpt>
      <trkpt lat="48.29008" lon="7.30358">
        <ele>603</ele>
        <time>2020-10-21T03:21:41Z</time>
      </trkpt>
      <trkpt lat="48.29" lon="7.30364">
        <ele>599</ele>
        <time>2020-10-21T03:21:53Z</time>
      </trkpt>
      <trkpt lat="48.2899" lon="7.30388">
        <ele>596</ele>
        <time>2020-10-21T03:22:18Z</time>
      </trkpt>
      <trkpt lat="48.28975" lon="7.30407">
        <ele>590</ele>
        <time>2020-10-21T03:22:44Z</time>
      </trkpt>
      <trkpt lat="48.28968" lon="7.30421">
        <ele>587</ele>
        <time>2020-10-21T03:23:00Z</time>
      </trkpt>
      <trkpt lat="48.28958" lon="7.3043">
        <ele>582</ele>
        <time>2020-10-21T03:23:15Z</time>
      </trkpt>
      <trkpt lat="48.28952" lon="7.30441">
        <ele>578</ele>
        <time>2020-10-21T03:23:28Z</time>
      </trkpt>
      <trkpt lat="48.28942" lon="7.30467">
        <ele>573</ele>
        <time>2020-10-21T03:23:55Z</time>
      </trkpt>
      <trkpt lat="48.28943" lon="7.30481">
        <ele>574</ele>
        <time>2020-10-21T03:24:07Z</time>
      </trkpt>
      <trkpt lat="48.28938" lon="7.30495">
        <ele>571</ele>
        <time>2020-10-21T03:24:21Z</time>
      </trkpt>
      <trkpt lat="48.28937" lon="7.3051">
        <ele>569</ele>
        <time>2020-10-21T03:24:35Z</time>
      </trkpt>
      <trkpt lat="48.28933" lon="7.30522">
        <ele>564</ele>
        <time>2020-10-21T03:24:47Z</time>
      </trkpt>
      <trkpt lat="48.28924" lon="7.30533">
        <ele>557</ele>
        <time>2020-10-21T03:25:02Z</time>
      </trkpt>
      <trkpt lat="48.28924" lon="7.30562">
        <ele>553</ele>
        <time>2020-10-21T03:25:28Z</time>
      </trkpt>
      <trkpt lat="48.2892" lon="7.30591">
        <ele>547</ele>
        <time>2020-10-21T03:25:54Z</time>
      </trkpt>
      <trkpt lat="48.28923" lon="7.30605">
        <ele>548</ele>
        <time>2020-10-21T03:26:07Z</time>
      </trkpt>
      <trkpt lat="48.2892" lon="7.30633">
        <ele>544</ele>
        <time>2020-10-21T03:26:32Z</time>
      </trkpt>
      <trkpt lat="48.28924" lon="7.30661">
        <ele>544</ele>
        <time>2020-10-21T03:26:58Z</time>
      </trkpt>
      <trkpt lat="48.28919" lon="7.30676">
        <ele>539</ele>
        <time>2020-10-21T03:27:13Z</time>
      </trkpt>
      <trkpt lat="48.28918" lon="7.30689">
        <ele>537</ele>
        <time>2020-10-21T03:27:24Z</time>
      </trkpt>
      <trkpt lat="48.28906" lon="7.3071">
        <ele>527</ele>
        <time>2020-10-21T03:27:49Z</time>
      </trkpt>
      <trkpt lat="48.28911" lon="7.30719">
        <ele>529</ele>
        <time>2020-10-21T03:27:59Z</time>
      </trkpt>
      <trkpt lat="48.28923" lon="7.30782">
        <ele>524</ele>
        <time>2020-10-21T03:28:58Z</time>
      </trkpt>
      <trkpt lat="48.28934" lon="7.30805">
        <ele>525</ele>
        <time>2020-10-21T03:29:23Z</time>
      </trkpt>
      <trkpt lat="48.28936" lon="7.3082">
        <ele>522</ele>
        <time>2020-10-21T03:29:36Z</time>
      </trkpt>
      <trkpt lat="48.28942" lon="7.30831">
        <ele>523</ele>
        <time>2020-10-21T03:29:49Z</time>
      </trkpt>
      <trkpt lat="48.28945" lon="7.30845">
        <ele>522</ele>
        <time>2020-10-21T03:30:02Z</time>
      </trkpt>
      <trkpt lat="48.28952" lon="7.30856">
        <ele>523</ele>
        <time>2020-10-21T03:30:15Z</time>
      </trkpt>
      <trkpt lat="48.28948" lon="7.30869">
        <ele>520</ele>
        <time>2020-10-21T03:30:28Z</time>
      </trkpt>
      <trkpt lat="48.28927" lon="7.309">
        <ele>508</ele>
        <time>2020-10-21T03:31:07Z</time>
      </trkpt>
      <trkpt lat="48.28927" lon="7.30897">
        <ele>508</ele>
        <time>2020-10-21T03:31:10Z</time>
      </trkpt>
      <trkpt lat="48.28926" lon="7.30912">
        <ele>506</ele>
        <time>2020-10-21T03:31:23Z</time>
      </trkpt>
      <trkpt lat="48.28904" lon="7.30928">
        <ele>499</ele>
        <time>2020-10-21T03:31:56Z</time>
      </trkpt>
      <trkpt lat="48.28903" lon="7.30942">
        <ele>499</ele>
        <time>2020-10-21T03:32:09Z</time>
      </trkpt>
      <trkpt lat="48.28897" lon="7.30944">
        <ele>497</ele>
        <time>2020-10-21T03:32:17Z</time>
      </trkpt>
      <trkpt lat="48.28888" lon="7.30908">
        <ele>495</ele>
        <time>2020-10-21T03:32:51Z</time>
      </trkpt>
      <trkpt lat="48.28877" lon="7.30883">
        <ele>494</ele>
        <time>2020-10-21T03:33:18Z</time>
      </trkpt>
      <trkpt lat="48.28851" lon="7.30863">
        <ele>486</ele>
        <time>2020-10-21T03:33:57Z</time>
      </trkpt>
      <trkpt lat="48.28817" lon="7.30888">
        <ele>476</ele>
        <time>2020-10-21T03:34:47Z</time>
      </trkpt>
      <trkpt lat="48.28808" lon="7.30893">
        <ele>474</ele>
        <time>2020-10-21T03:35:00Z</time>
      </trkpt>
      <trkpt lat="48.28798" lon="7.30895">
        <ele>471</ele>
        <time>2020-10-21T03:35:13Z</time>
      </trkpt>
      <trkpt lat="48.28788" lon="7.30894">
        <ele>469</ele>
        <time>2020-10-21T03:35:27Z</time>
      </trkpt>
      <trkpt lat="48.28779" lon="7.30896">
        <ele>466</ele>
        <time>2020-10-21T03:35:39Z</time>
      </trkpt>
      <trkpt lat="48.28759" lon="7.30885">
        <ele>461</ele>
        <time>2020-10-21T03:36:07Z</time>
      </trkpt>
      <trkpt lat="48.28741" lon="7.30881">
        <ele>456</ele>
        <time>2020-10-21T03:36:32Z</time>
      </trkpt>
      <trkpt lat="48.2873" lon="7.30882">
        <ele>454</ele>
        <time>2020-10-21T03:36:46Z</time>
      </trkpt>
      <trkpt lat="48.28699" lon="7.30873">
        <ele>447</ele>
        <time>2020-10-21T03:37:28Z</time>
      </trkpt>
      <trkpt lat="48.28688" lon="7.30872">
        <ele>445</ele>
        <time>2020-10-21T03:37:43Z</time>
      </trkpt>
      <trkpt lat="48.28651" lon="7.30858">
        <ele>437</ele>
        <time>2020-10-21T03:38:34Z</time>
      </trkpt>
      <trkpt lat="48.28601" lon="7.30855">
        <ele>427</ele>
        <time>2020-10-21T03:39:41Z</time>
      </trkpt>
      <trkpt lat="48.28554" lon="7.30859">
        <ele>418</ele>
        <time>2020-10-21T03:40:44Z</time>
      </trkpt>
      <trkpt lat="48.28466" lon="7.30876">
        <ele>402</ele>
        <time>2020-10-21T03:42:42Z</time>
      </trkpt>
      <trkpt lat="48.28456" lon="7.30875">
        <ele>401</ele>
        <time>2020-10-21T03:42:55Z</time>
      </trkpt>
      <trkpt lat="48.2841" lon="7.30888">
        <ele>394</ele>
        <time>2020-10-21T03:43:58Z</time>
      </trkpt>
      <trkpt lat="48.28403" lon="7.30898">
        <ele>394</ele>
        <time>2020-10-21T03:44:11Z</time>
      </trkpt>
      <trkpt lat="48.28399" lon="7.30911">
        <ele>393</ele>
        <time>2020-10-21T03:44:23Z</time>
      </trkpt>
      <trkpt lat="48.28387" lon="7.30934">
        <ele>392</ele>
        <time>2020-10-21T03:44:49Z</time>
      </trkpt>
      <trkpt lat="48.28409" lon="7.30933">
        <ele>394</ele>
        <time>2020-10-21T03:45:19Z</time>
      </trkpt>
      <trkpt lat="48.28413" lon="7.30946">
        <ele>394</ele>
        <time>2020-10-21T03:45:31Z</time>
      </trkpt>
      <trkpt lat="48.28414" lon="7.30975">
        <ele>393</ele>
        <time>2020-10-21T03:45:57Z</time>
      </trkpt>
      <trkpt lat="48.28408" lon="7.31003">
        <ele>392</ele>
        <time>2020-10-21T03:46:23Z</time>
      </trkpt>
      <trkpt lat="48.28423" lon="7.31036">
        <ele>392</ele>
        <time>2020-10-21T03:46:59Z</time>
      </trkpt>
      <trkpt lat="48.28426" lon="7.31057">
        <ele>392</ele>
        <time>2020-10-21T03:47:18Z</time>
      </trkpt>
      <trkpt lat="48.28432" lon="7.31068">
        <ele>392</ele>
        <time>2020-10-21T03:47:31Z</time>
      </trkpt>
      <trkpt lat="48.28433" lon="7.31082">
        <ele>392</ele>
        <time>2020-10-21T03:47:43Z</time>
      </trkpt>
      <trkpt lat="48.28446" lon="7.31104">
        <ele>392</ele>
        <time>2020-10-21T03:48:09Z</time>
      </trkpt>
      <trkpt lat="48.2845" lon="7.31117">
        <ele>391</ele>
        <time>2020-10-21T03:48:22Z</time>
      </trkpt>
      <trkpt lat="48.28453" lon="7.31146">
        <ele>389</ele>
        <time>2020-10-21T03:48:48Z</time>
      </trkpt>
      <trkpt lat="48.28448" lon="7.31158">
        <ele>388</ele>
        <time>2020-10-21T03:49:01Z</time>
      </trkpt>
      <trkpt lat="48.28447" lon="7.31173">
        <ele>387</ele>
        <time>2020-10-21T03:49:14Z</time>
      </trkpt>
      <trkpt lat="48.28452" lon="7.31199">
        <ele>386</ele>
        <time>2020-10-21T03:49:38Z</time>
      </trkpt>
      <trkpt lat="48.28445" lon="7.31277">
        <ele>384</ele>
        <time>2020-10-21T03:50:48Z</time>
      </trkpt>
      <trkpt lat="48.28436" lon="7.31323">
        <ele>385</ele>
        <time>2020-10-21T03:51:30Z</time>
      </trkpt>
      <trkpt lat="48.28437" lon="7.31338">
        <ele>386</ele>
        <time>2020-10-21T03:51:44Z</time>
      </trkpt>
      <trkpt lat="48.2843" lon="7.31368">
        <ele>387</ele>
        <time>2020-10-21T03:52:12Z</time>
      </trkpt>
      <trkpt lat="48.28428" lon="7.3141">
        <ele>390</ele>
        <time>2020-10-21T03:52:49Z</time>
      </trkpt>
      <trkpt lat="48.28422" lon="7.31451">
        <ele>391</ele>
        <time>2020-10-21T03:53:27Z</time>
      </trkpt>
      <trkpt lat="48.28419" lon="7.31463">
        <ele>391</ele>
        <time>2020-10-21T03:53:38Z</time>
      </trkpt>
      <trkpt lat="48.28411" lon="7.31474">
        <ele>392</ele>
        <time>2020-10-21T03:53:53Z</time>
      </trkpt>
      <trkpt lat="48.28402" lon="7.31501">
        <ele>393</ele>
        <time>2020-10-21T03:54:19Z</time>
      </trkpt>
      <trkpt lat="48.28388" lon="7.31567">
        <ele>392</ele>
        <time>2020-10-21T03:55:21Z</time>
      </trkpt>
      <trkpt lat="48.28383" lon="7.3158">
        <ele>391</ele>
        <time>2020-10-21T03:55:34Z</time>
      </trkpt>
      <trkpt lat="48.28379" lon="7.31608">
        <ele>389</ele>
        <time>2020-10-21T03:56:00Z</time>
      </trkpt>
      <trkpt lat="48.28363" lon="7.31645">
        <ele>386</ele>
        <time>2020-10-21T03:56:39Z</time>
      </trkpt>
      <trkpt lat="48.2835" lon="7.31695">
        <ele>383</ele>
        <time>2020-10-21T03:57:27Z</time>
      </trkpt>
      <trkpt lat="48.28349" lon="7.31724">
        <ele>383</ele>
        <time>2020-10-21T03:57:52Z</time>
      </trkpt>
      <trkpt lat="48.28354" lon="7.31752">
        <ele>384</ele>
        <time>2020-10-21T03:58:18Z</time>
      </trkpt>
      <trkpt lat="48.28354" lon="7.31767">
        <ele>383</ele>
        <time>2020-10-21T03:58:31Z</time>
      </trkpt>
    </trkseg>
  </trk>
</gpx>